<?xml version="1.0" encoding="UTF-8" standalone="no" ?>
<gpx xmlns="http://www.topografix.com/GPX/1/1" xmlns:xsi="http://www.w3.org/2001/XMLSchema-instance" xsi:schemaLocation="http://www.topografix.com/GPX/1/1 http://www.topografix.com/GPX/1/1/gpx.xsd" version="1.1" creator="VisuGPX - https://www.visugpx.com">
  <metadata>
    <name>Pic du MONTAIGU</name>
    <desc><![CDATA[Départ de la vallée du Chiroulet]]></desc>
  </metadata>
  <trk>
    <name><![CDATA[Pic du Montaigu]]></name>
    <trkseg>
      <trkpt lat="42.99188" lon="0.09538">
        <ele>1139.8</ele>
        <time>2015-11-11T08:01:42Z</time>
      </trkpt>
      <trkpt lat="42.99189" lon="0.09538">
        <ele>1140.3</ele>
        <time>2015-11-11T08:01:43Z</time>
      </trkpt>
      <trkpt lat="42.99188" lon="0.09537">
        <ele>1146.5</ele>
        <time>2015-11-11T08:03:14Z</time>
      </trkpt>
      <trkpt lat="42.99189" lon="0.09536">
        <ele>1145.7</ele>
        <time>2015-11-11T08:03:15Z</time>
      </trkpt>
      <trkpt lat="42.99186" lon="0.09513">
        <ele>1131.4</ele>
        <time>2015-11-11T08:03:53Z</time>
      </trkpt>
      <trkpt lat="42.99185" lon="0.09502">
        <ele>1136.5</ele>
        <time>2015-11-11T08:04:06Z</time>
      </trkpt>
      <trkpt lat="42.99187" lon="0.0949">
        <ele>1140.2</ele>
        <time>2015-11-11T08:04:17Z</time>
      </trkpt>
      <trkpt lat="42.99187" lon="0.09489">
        <ele>1140.6</ele>
        <time>2015-11-11T08:04:18Z</time>
      </trkpt>
      <trkpt lat="42.99187" lon="0.09468">
        <ele>1148.8</ele>
        <time>2015-11-11T08:04:40Z</time>
      </trkpt>
      <trkpt lat="42.99183" lon="0.09458">
        <ele>1145.6</ele>
        <time>2015-11-11T08:04:49Z</time>
      </trkpt>
      <trkpt lat="42.99179" lon="0.09447">
        <ele>1141.9</ele>
        <time>2015-11-11T08:04:58Z</time>
      </trkpt>
      <trkpt lat="42.99178" lon="0.09435">
        <ele>1147.5</ele>
        <time>2015-11-11T08:05:11Z</time>
      </trkpt>
      <trkpt lat="42.99178" lon="0.09423">
        <ele>1150.5</ele>
        <time>2015-11-11T08:05:22Z</time>
      </trkpt>
      <trkpt lat="42.99177" lon="0.09422">
        <ele>1150.6</ele>
        <time>2015-11-11T08:05:23Z</time>
      </trkpt>
      <trkpt lat="42.99171" lon="0.09402">
        <ele>1156.2</ele>
        <time>2015-11-11T08:05:42Z</time>
      </trkpt>
      <trkpt lat="42.99165" lon="0.09394">
        <ele>1159.4</ele>
        <time>2015-11-11T08:05:54Z</time>
      </trkpt>
      <trkpt lat="42.99161" lon="0.09383">
        <ele>1163.5</ele>
        <time>2015-11-11T08:06:08Z</time>
      </trkpt>
      <trkpt lat="42.99162" lon="0.09372">
        <ele>1164.4</ele>
        <time>2015-11-11T08:06:17Z</time>
      </trkpt>
      <trkpt lat="42.99167" lon="0.09363">
        <ele>1162.2</ele>
        <time>2015-11-11T08:06:27Z</time>
      </trkpt>
      <trkpt lat="42.99167" lon="0.09361">
        <ele>1162.1</ele>
        <time>2015-11-11T08:06:28Z</time>
      </trkpt>
      <trkpt lat="42.99168" lon="0.09339">
        <ele>1161.3</ele>
        <time>2015-11-11T08:06:44Z</time>
      </trkpt>
      <trkpt lat="42.99167" lon="0.09328">
        <ele>1164.7</ele>
        <time>2015-11-11T08:06:52Z</time>
      </trkpt>
      <trkpt lat="42.99169" lon="0.09316">
        <ele>1170.8</ele>
        <time>2015-11-11T08:07:03Z</time>
      </trkpt>
      <trkpt lat="42.99172" lon="0.09305">
        <ele>1173.1</ele>
        <time>2015-11-11T08:07:12Z</time>
      </trkpt>
      <trkpt lat="42.99173" lon="0.09293">
        <ele>1174.5</ele>
        <time>2015-11-11T08:07:21Z</time>
      </trkpt>
      <trkpt lat="42.99173" lon="0.09282">
        <ele>1179.1</ele>
        <time>2015-11-11T08:07:30Z</time>
      </trkpt>
      <trkpt lat="42.99173" lon="0.09281">
        <ele>1179.7</ele>
        <time>2015-11-11T08:07:31Z</time>
      </trkpt>
      <trkpt lat="42.99179" lon="0.0926">
        <ele>1194.7</ele>
        <time>2015-11-11T08:07:49Z</time>
      </trkpt>
      <trkpt lat="42.99181" lon="0.0925">
        <ele>1198.4</ele>
        <time>2015-11-11T08:07:57Z</time>
      </trkpt>
      <trkpt lat="42.99186" lon="0.09241">
        <ele>1201.9</ele>
        <time>2015-11-11T08:08:05Z</time>
      </trkpt>
      <trkpt lat="42.99191" lon="0.09231">
        <ele>1205.1</ele>
        <time>2015-11-11T08:08:15Z</time>
      </trkpt>
      <trkpt lat="42.99193" lon="0.09219">
        <ele>1205.5</ele>
        <time>2015-11-11T08:08:25Z</time>
      </trkpt>
      <trkpt lat="42.99193" lon="0.09208">
        <ele>1202.3</ele>
        <time>2015-11-11T08:08:35Z</time>
      </trkpt>
      <trkpt lat="42.99193" lon="0.09207">
        <ele>1202</ele>
        <time>2015-11-11T08:08:36Z</time>
      </trkpt>
      <trkpt lat="42.99192" lon="0.09184">
        <ele>1205</ele>
        <time>2015-11-11T08:08:57Z</time>
      </trkpt>
      <trkpt lat="42.9919" lon="0.09172">
        <ele>1207.9</ele>
        <time>2015-11-11T08:09:10Z</time>
      </trkpt>
      <trkpt lat="42.99188" lon="0.09161">
        <ele>1210.6</ele>
        <time>2015-11-11T08:09:19Z</time>
      </trkpt>
      <trkpt lat="42.99185" lon="0.0915">
        <ele>1209.7</ele>
        <time>2015-11-11T08:09:27Z</time>
      </trkpt>
      <trkpt lat="42.99182" lon="0.0914">
        <ele>1209.7</ele>
        <time>2015-11-11T08:09:34Z</time>
      </trkpt>
      <trkpt lat="42.99182" lon="0.09127">
        <ele>1214.8</ele>
        <time>2015-11-11T08:09:45Z</time>
      </trkpt>
      <trkpt lat="42.99182" lon="0.09126">
        <ele>1215.4</ele>
        <time>2015-11-11T08:09:46Z</time>
      </trkpt>
      <trkpt lat="42.99176" lon="0.09105">
        <ele>1230.8</ele>
        <time>2015-11-11T08:10:10Z</time>
      </trkpt>
      <trkpt lat="42.99176" lon="0.09093">
        <ele>1233.6</ele>
        <time>2015-11-11T08:10:20Z</time>
      </trkpt>
      <trkpt lat="42.99177" lon="0.09081">
        <ele>1235.7</ele>
        <time>2015-11-11T08:10:32Z</time>
      </trkpt>
      <trkpt lat="42.99179" lon="0.0907">
        <ele>1238.3</ele>
        <time>2015-11-11T08:10:43Z</time>
      </trkpt>
      <trkpt lat="42.9918" lon="0.09058">
        <ele>1242</ele>
        <time>2015-11-11T08:10:53Z</time>
      </trkpt>
      <trkpt lat="42.99181" lon="0.09057">
        <ele>1242.1</ele>
        <time>2015-11-11T08:10:54Z</time>
      </trkpt>
      <trkpt lat="42.99181" lon="0.09034">
        <ele>1245.4</ele>
        <time>2015-11-11T08:11:14Z</time>
      </trkpt>
      <trkpt lat="42.99178" lon="0.09023">
        <ele>1247.9</ele>
        <time>2015-11-11T08:11:25Z</time>
      </trkpt>
      <trkpt lat="42.99175" lon="0.09013">
        <ele>1250.9</ele>
        <time>2015-11-11T08:11:37Z</time>
      </trkpt>
      <trkpt lat="42.9917" lon="0.09002">
        <ele>1252.6</ele>
        <time>2015-11-11T08:11:45Z</time>
      </trkpt>
      <trkpt lat="42.99166" lon="0.08992">
        <ele>1254.5</ele>
        <time>2015-11-11T08:11:54Z</time>
      </trkpt>
      <trkpt lat="42.99165" lon="0.0899">
        <ele>1254.7</ele>
        <time>2015-11-11T08:11:55Z</time>
      </trkpt>
      <trkpt lat="42.99166" lon="0.08969">
        <ele>1256.1</ele>
        <time>2015-11-11T08:12:13Z</time>
      </trkpt>
      <trkpt lat="42.99167" lon="0.08957">
        <ele>1258</ele>
        <time>2015-11-11T08:12:21Z</time>
      </trkpt>
      <trkpt lat="42.99168" lon="0.08947">
        <ele>1260.5</ele>
        <time>2015-11-11T08:12:29Z</time>
      </trkpt>
      <trkpt lat="42.99171" lon="0.08936">
        <ele>1261.5</ele>
        <time>2015-11-11T08:12:37Z</time>
      </trkpt>
      <trkpt lat="42.99173" lon="0.08926">
        <ele>1262.3</ele>
        <time>2015-11-11T08:12:45Z</time>
      </trkpt>
      <trkpt lat="42.99178" lon="0.08917">
        <ele>1264.6</ele>
        <time>2015-11-11T08:12:53Z</time>
      </trkpt>
      <trkpt lat="42.99184" lon="0.08908">
        <ele>1266.3</ele>
        <time>2015-11-11T08:13:01Z</time>
      </trkpt>
      <trkpt lat="42.99184" lon="0.08907">
        <ele>1266.6</ele>
        <time>2015-11-11T08:13:02Z</time>
      </trkpt>
      <trkpt lat="42.99189" lon="0.08885">
        <ele>1269.2</ele>
        <time>2015-11-11T08:13:20Z</time>
      </trkpt>
      <trkpt lat="42.99191" lon="0.08874">
        <ele>1271.3</ele>
        <time>2015-11-11T08:13:31Z</time>
      </trkpt>
      <trkpt lat="42.99197" lon="0.08865">
        <ele>1274.1</ele>
        <time>2015-11-11T08:13:42Z</time>
      </trkpt>
      <trkpt lat="42.99203" lon="0.08858">
        <ele>1276.1</ele>
        <time>2015-11-11T08:13:54Z</time>
      </trkpt>
      <trkpt lat="42.9921" lon="0.0885">
        <ele>1279.5</ele>
        <time>2015-11-11T08:14:04Z</time>
      </trkpt>
      <trkpt lat="42.9921" lon="0.08849">
        <ele>1279.5</ele>
        <time>2015-11-11T08:14:05Z</time>
      </trkpt>
      <trkpt lat="42.99221" lon="0.08832">
        <ele>1279.8</ele>
        <time>2015-11-11T08:14:22Z</time>
      </trkpt>
      <trkpt lat="42.99227" lon="0.08823">
        <ele>1280.4</ele>
        <time>2015-11-11T08:14:30Z</time>
      </trkpt>
      <trkpt lat="42.99233" lon="0.08816">
        <ele>1281</ele>
        <time>2015-11-11T08:14:37Z</time>
      </trkpt>
      <trkpt lat="42.99239" lon="0.08808">
        <ele>1281</ele>
        <time>2015-11-11T08:14:43Z</time>
      </trkpt>
      <trkpt lat="42.99244" lon="0.08799">
        <ele>1280.3</ele>
        <time>2015-11-11T08:14:50Z</time>
      </trkpt>
      <trkpt lat="42.99249" lon="0.08789">
        <ele>1281.6</ele>
        <time>2015-11-11T08:14:57Z</time>
      </trkpt>
      <trkpt lat="42.99255" lon="0.0878">
        <ele>1280.8</ele>
        <time>2015-11-11T08:15:04Z</time>
      </trkpt>
      <trkpt lat="42.99259" lon="0.08772">
        <ele>1280.9</ele>
        <time>2015-11-11T08:15:10Z</time>
      </trkpt>
      <trkpt lat="42.9926" lon="0.0877">
        <ele>1281.2</ele>
        <time>2015-11-11T08:15:11Z</time>
      </trkpt>
      <trkpt lat="42.99268" lon="0.08752">
        <ele>1282.9</ele>
        <time>2015-11-11T08:15:22Z</time>
      </trkpt>
      <trkpt lat="42.99271" lon="0.08741">
        <ele>1283</ele>
        <time>2015-11-11T08:15:28Z</time>
      </trkpt>
      <trkpt lat="42.99273" lon="0.0873">
        <ele>1283.1</ele>
        <time>2015-11-11T08:15:34Z</time>
      </trkpt>
      <trkpt lat="42.99274" lon="0.08719">
        <ele>1283.3</ele>
        <time>2015-11-11T08:15:40Z</time>
      </trkpt>
      <trkpt lat="42.99281" lon="0.08711">
        <ele>1283.8</ele>
        <time>2015-11-11T08:15:50Z</time>
      </trkpt>
      <trkpt lat="42.99289" lon="0.08709">
        <ele>1285.9</ele>
        <time>2015-11-11T08:15:58Z</time>
      </trkpt>
      <trkpt lat="42.99296" lon="0.08703">
        <ele>1288.6</ele>
        <time>2015-11-11T08:16:11Z</time>
      </trkpt>
      <trkpt lat="42.99297" lon="0.08702">
        <ele>1289.1</ele>
        <time>2015-11-11T08:16:12Z</time>
      </trkpt>
      <trkpt lat="42.99292" lon="0.08681">
        <ele>1291.3</ele>
        <time>2015-11-11T08:19:20Z</time>
      </trkpt>
      <trkpt lat="42.99292" lon="0.0868">
        <ele>1291.5</ele>
        <time>2015-11-11T08:19:21Z</time>
      </trkpt>
      <trkpt lat="42.993" lon="0.08661">
        <ele>1295.1</ele>
        <time>2015-11-11T08:19:39Z</time>
      </trkpt>
      <trkpt lat="42.99303" lon="0.0865">
        <ele>1297.1</ele>
        <time>2015-11-11T08:19:49Z</time>
      </trkpt>
      <trkpt lat="42.99306" lon="0.0864">
        <ele>1298</ele>
        <time>2015-11-11T08:19:58Z</time>
      </trkpt>
      <trkpt lat="42.99311" lon="0.0863">
        <ele>1299.4</ele>
        <time>2015-11-11T08:20:05Z</time>
      </trkpt>
      <trkpt lat="42.99314" lon="0.0862">
        <ele>1300.9</ele>
        <time>2015-11-11T08:20:13Z</time>
      </trkpt>
      <trkpt lat="42.99318" lon="0.08609">
        <ele>1301.2</ele>
        <time>2015-11-11T08:20:20Z</time>
      </trkpt>
      <trkpt lat="42.99323" lon="0.086">
        <ele>1302.4</ele>
        <time>2015-11-11T08:20:27Z</time>
      </trkpt>
      <trkpt lat="42.99324" lon="0.08599">
        <ele>1302.6</ele>
        <time>2015-11-11T08:20:28Z</time>
      </trkpt>
      <trkpt lat="42.99332" lon="0.08581">
        <ele>1304.8</ele>
        <time>2015-11-11T08:20:41Z</time>
      </trkpt>
      <trkpt lat="42.99337" lon="0.0857">
        <ele>1304.3</ele>
        <time>2015-11-11T08:20:49Z</time>
      </trkpt>
      <trkpt lat="42.99341" lon="0.08559">
        <ele>1307</ele>
        <time>2015-11-11T08:20:58Z</time>
      </trkpt>
      <trkpt lat="42.99345" lon="0.08549">
        <ele>1308.6</ele>
        <time>2015-11-11T08:21:08Z</time>
      </trkpt>
      <trkpt lat="42.99347" lon="0.08538">
        <ele>1310.1</ele>
        <time>2015-11-11T08:21:19Z</time>
      </trkpt>
      <trkpt lat="42.99352" lon="0.08529">
        <ele>1313.2</ele>
        <time>2015-11-11T08:21:30Z</time>
      </trkpt>
      <trkpt lat="42.99353" lon="0.08528">
        <ele>1313.1</ele>
        <time>2015-11-11T08:21:31Z</time>
      </trkpt>
      <trkpt lat="42.99366" lon="0.08514">
        <ele>1314.7</ele>
        <time>2015-11-11T08:21:47Z</time>
      </trkpt>
      <trkpt lat="42.9937" lon="0.08504">
        <ele>1315.3</ele>
        <time>2015-11-11T08:21:55Z</time>
      </trkpt>
      <trkpt lat="42.99375" lon="0.08493">
        <ele>1317.3</ele>
        <time>2015-11-11T08:22:04Z</time>
      </trkpt>
      <trkpt lat="42.99379" lon="0.08484">
        <ele>1319</ele>
        <time>2015-11-11T08:22:12Z</time>
      </trkpt>
      <trkpt lat="42.99385" lon="0.08475">
        <ele>1320.3</ele>
        <time>2015-11-11T08:22:20Z</time>
      </trkpt>
      <trkpt lat="42.9939" lon="0.08465">
        <ele>1323.5</ele>
        <time>2015-11-11T08:22:29Z</time>
      </trkpt>
      <trkpt lat="42.99394" lon="0.08455">
        <ele>1324.5</ele>
        <time>2015-11-11T08:22:38Z</time>
      </trkpt>
      <trkpt lat="42.99395" lon="0.08454">
        <ele>1324.4</ele>
        <time>2015-11-11T08:22:39Z</time>
      </trkpt>
      <trkpt lat="42.99404" lon="0.08437">
        <ele>1327.1</ele>
        <time>2015-11-11T08:22:57Z</time>
      </trkpt>
      <trkpt lat="42.99405" lon="0.08426">
        <ele>1330.9</ele>
        <time>2015-11-11T08:23:07Z</time>
      </trkpt>
      <trkpt lat="42.99409" lon="0.08415">
        <ele>1334.3</ele>
        <time>2015-11-11T08:23:20Z</time>
      </trkpt>
      <trkpt lat="42.99412" lon="0.08404">
        <ele>1337.2</ele>
        <time>2015-11-11T08:23:37Z</time>
      </trkpt>
      <trkpt lat="42.99416" lon="0.08393">
        <ele>1340.7</ele>
        <time>2015-11-11T08:23:48Z</time>
      </trkpt>
      <trkpt lat="42.99417" lon="0.08392">
        <ele>1340.9</ele>
        <time>2015-11-11T08:23:49Z</time>
      </trkpt>
      <trkpt lat="42.99428" lon="0.08376">
        <ele>1343.8</ele>
        <time>2015-11-11T08:24:07Z</time>
      </trkpt>
      <trkpt lat="42.99433" lon="0.08366">
        <ele>1345.5</ele>
        <time>2015-11-11T08:24:17Z</time>
      </trkpt>
      <trkpt lat="42.99441" lon="0.08362">
        <ele>1347.2</ele>
        <time>2015-11-11T08:24:30Z</time>
      </trkpt>
      <trkpt lat="42.99447" lon="0.08354">
        <ele>1348.2</ele>
        <time>2015-11-11T08:24:38Z</time>
      </trkpt>
      <trkpt lat="42.99453" lon="0.08345">
        <ele>1349.4</ele>
        <time>2015-11-11T08:24:46Z</time>
      </trkpt>
      <trkpt lat="42.99457" lon="0.08334">
        <ele>1349.8</ele>
        <time>2015-11-11T08:24:53Z</time>
      </trkpt>
      <trkpt lat="42.99457" lon="0.08333">
        <ele>1349.9</ele>
        <time>2015-11-11T08:24:54Z</time>
      </trkpt>
      <trkpt lat="42.99465" lon="0.08314">
        <ele>1351.2</ele>
        <time>2015-11-11T08:25:06Z</time>
      </trkpt>
      <trkpt lat="42.9947" lon="0.08305">
        <ele>1351.3</ele>
        <time>2015-11-11T08:25:13Z</time>
      </trkpt>
      <trkpt lat="42.99471" lon="0.08294">
        <ele>1352.5</ele>
        <time>2015-11-11T08:26:22Z</time>
      </trkpt>
      <trkpt lat="42.99471" lon="0.08293">
        <ele>1352.5</ele>
        <time>2015-11-11T08:26:23Z</time>
      </trkpt>
      <trkpt lat="42.99484" lon="0.08278">
        <ele>1353.7</ele>
        <time>2015-11-11T08:26:47Z</time>
      </trkpt>
      <trkpt lat="42.99492" lon="0.08274">
        <ele>1355.1</ele>
        <time>2015-11-11T08:27:16Z</time>
      </trkpt>
      <trkpt lat="42.99495" lon="0.08264">
        <ele>1356.1</ele>
        <time>2015-11-11T08:27:24Z</time>
      </trkpt>
      <trkpt lat="42.99499" lon="0.08255">
        <ele>1356.5</ele>
        <time>2015-11-11T08:27:31Z</time>
      </trkpt>
      <trkpt lat="42.995" lon="0.08253">
        <ele>1356.5</ele>
        <time>2015-11-11T08:27:32Z</time>
      </trkpt>
      <trkpt lat="42.9951" lon="0.08237">
        <ele>1359</ele>
        <time>2015-11-11T08:27:46Z</time>
      </trkpt>
      <trkpt lat="42.99516" lon="0.08228">
        <ele>1359.9</ele>
        <time>2015-11-11T08:27:53Z</time>
      </trkpt>
      <trkpt lat="42.9952" lon="0.08218">
        <ele>1361.2</ele>
        <time>2015-11-11T08:28:01Z</time>
      </trkpt>
      <trkpt lat="42.99525" lon="0.08209">
        <ele>1363.5</ele>
        <time>2015-11-11T08:28:10Z</time>
      </trkpt>
      <trkpt lat="42.9953" lon="0.082">
        <ele>1365.1</ele>
        <time>2015-11-11T08:28:19Z</time>
      </trkpt>
      <trkpt lat="42.99534" lon="0.0819">
        <ele>1366.8</ele>
        <time>2015-11-11T08:28:27Z</time>
      </trkpt>
      <trkpt lat="42.99536" lon="0.08179">
        <ele>1368</ele>
        <time>2015-11-11T08:28:37Z</time>
      </trkpt>
      <trkpt lat="42.99536" lon="0.08178">
        <ele>1368.3</ele>
        <time>2015-11-11T08:28:38Z</time>
      </trkpt>
      <trkpt lat="42.99544" lon="0.08159">
        <ele>1375.1</ele>
        <time>2015-11-11T08:29:03Z</time>
      </trkpt>
      <trkpt lat="42.9955" lon="0.0815">
        <ele>1377.5</ele>
        <time>2015-11-11T08:29:16Z</time>
      </trkpt>
      <trkpt lat="42.99556" lon="0.08142">
        <ele>1379.7</ele>
        <time>2015-11-11T08:29:26Z</time>
      </trkpt>
      <trkpt lat="42.9956" lon="0.08133">
        <ele>1380.9</ele>
        <time>2015-11-11T08:29:34Z</time>
      </trkpt>
      <trkpt lat="42.99566" lon="0.08124">
        <ele>1383.6</ele>
        <time>2015-11-11T08:29:43Z</time>
      </trkpt>
      <trkpt lat="42.99567" lon="0.08123">
        <ele>1383.7</ele>
        <time>2015-11-11T08:29:44Z</time>
      </trkpt>
      <trkpt lat="42.99577" lon="0.08105">
        <ele>1386.7</ele>
        <time>2015-11-11T08:30:00Z</time>
      </trkpt>
      <trkpt lat="42.99581" lon="0.08094">
        <ele>1388</ele>
        <time>2015-11-11T08:30:09Z</time>
      </trkpt>
      <trkpt lat="42.99586" lon="0.08084">
        <ele>1389.4</ele>
        <time>2015-11-11T08:30:18Z</time>
      </trkpt>
      <trkpt lat="42.9959" lon="0.08075">
        <ele>1390.9</ele>
        <time>2015-11-11T08:30:26Z</time>
      </trkpt>
      <trkpt lat="42.99594" lon="0.08064">
        <ele>1391.5</ele>
        <time>2015-11-11T08:30:34Z</time>
      </trkpt>
      <trkpt lat="42.99599" lon="0.08055">
        <ele>1393</ele>
        <time>2015-11-11T08:30:42Z</time>
      </trkpt>
      <trkpt lat="42.99604" lon="0.08045">
        <ele>1395.1</ele>
        <time>2015-11-11T08:30:50Z</time>
      </trkpt>
      <trkpt lat="42.99604" lon="0.08044">
        <ele>1395.4</ele>
        <time>2015-11-11T08:30:51Z</time>
      </trkpt>
      <trkpt lat="42.99613" lon="0.08025">
        <ele>1399.1</ele>
        <time>2015-11-11T08:31:10Z</time>
      </trkpt>
      <trkpt lat="42.99619" lon="0.08017">
        <ele>1400.5</ele>
        <time>2015-11-11T08:31:21Z</time>
      </trkpt>
      <trkpt lat="42.99625" lon="0.08009">
        <ele>1403.6</ele>
        <time>2015-11-11T08:31:32Z</time>
      </trkpt>
      <trkpt lat="42.99633" lon="0.08002">
        <ele>1407</ele>
        <time>2015-11-11T08:31:44Z</time>
      </trkpt>
      <trkpt lat="42.99637" lon="0.07991">
        <ele>1408.2</ele>
        <time>2015-11-11T08:31:54Z</time>
      </trkpt>
      <trkpt lat="42.99638" lon="0.0799">
        <ele>1408.2</ele>
        <time>2015-11-11T08:31:55Z</time>
      </trkpt>
      <trkpt lat="42.99648" lon="0.07974">
        <ele>1410.9</ele>
        <time>2015-11-11T08:32:14Z</time>
      </trkpt>
      <trkpt lat="42.99657" lon="0.07976">
        <ele>1412.5</ele>
        <time>2015-11-11T08:32:30Z</time>
      </trkpt>
      <trkpt lat="42.9966" lon="0.07987">
        <ele>1415.6</ele>
        <time>2015-11-11T08:32:49Z</time>
      </trkpt>
      <trkpt lat="42.99668" lon="0.07987">
        <ele>1419.2</ele>
        <time>2015-11-11T08:33:06Z</time>
      </trkpt>
      <trkpt lat="42.99669" lon="0.07986">
        <ele>1419.7</ele>
        <time>2015-11-11T08:33:07Z</time>
      </trkpt>
      <trkpt lat="42.9968" lon="0.07969">
        <ele>1428.3</ele>
        <time>2015-11-11T08:33:43Z</time>
      </trkpt>
      <trkpt lat="42.99685" lon="0.07959">
        <ele>1431.8</ele>
        <time>2015-11-11T08:33:58Z</time>
      </trkpt>
      <trkpt lat="42.9969" lon="0.07949">
        <ele>1435.2</ele>
        <time>2015-11-11T08:34:15Z</time>
      </trkpt>
      <trkpt lat="42.9969" lon="0.07949">
        <ele>1435.6</ele>
        <time>2015-11-11T08:34:16Z</time>
      </trkpt>
      <trkpt lat="42.99693" lon="0.07925">
        <ele>1441</ele>
        <time>2015-11-11T08:34:45Z</time>
      </trkpt>
      <trkpt lat="42.9969" lon="0.07914">
        <ele>1443.2</ele>
        <time>2015-11-11T08:34:59Z</time>
      </trkpt>
      <trkpt lat="42.99688" lon="0.07902">
        <ele>1446.3</ele>
        <time>2015-11-11T08:35:12Z</time>
      </trkpt>
      <trkpt lat="42.99685" lon="0.07892">
        <ele>1449.2</ele>
        <time>2015-11-11T08:35:21Z</time>
      </trkpt>
      <trkpt lat="42.99684" lon="0.07891">
        <ele>1449.5</ele>
        <time>2015-11-11T08:35:22Z</time>
      </trkpt>
      <trkpt lat="42.99681" lon="0.07869">
        <ele>1450</ele>
        <time>2015-11-11T08:35:41Z</time>
      </trkpt>
      <trkpt lat="42.99678" lon="0.07858">
        <ele>1452.9</ele>
        <time>2015-11-11T08:35:53Z</time>
      </trkpt>
      <trkpt lat="42.99679" lon="0.07846">
        <ele>1455.1</ele>
        <time>2015-11-11T08:36:03Z</time>
      </trkpt>
      <trkpt lat="42.99679" lon="0.07835">
        <ele>1455.6</ele>
        <time>2015-11-11T08:36:11Z</time>
      </trkpt>
      <trkpt lat="42.99681" lon="0.07824">
        <ele>1456</ele>
        <time>2015-11-11T08:36:20Z</time>
      </trkpt>
      <trkpt lat="42.99681" lon="0.07813">
        <ele>1457.6</ele>
        <time>2015-11-11T08:36:27Z</time>
      </trkpt>
      <trkpt lat="42.99681" lon="0.07811">
        <ele>1457.8</ele>
        <time>2015-11-11T08:36:28Z</time>
      </trkpt>
      <trkpt lat="42.9968" lon="0.0779">
        <ele>1459.8</ele>
        <time>2015-11-11T08:36:46Z</time>
      </trkpt>
      <trkpt lat="42.99684" lon="0.07779">
        <ele>1462.5</ele>
        <time>2015-11-11T08:36:56Z</time>
      </trkpt>
      <trkpt lat="42.99686" lon="0.07768">
        <ele>1463.8</ele>
        <time>2015-11-11T08:37:04Z</time>
      </trkpt>
      <trkpt lat="42.99686" lon="0.07756">
        <ele>1465.4</ele>
        <time>2015-11-11T08:37:13Z</time>
      </trkpt>
      <trkpt lat="42.99685" lon="0.07745">
        <ele>1467.3</ele>
        <time>2015-11-11T08:37:21Z</time>
      </trkpt>
      <trkpt lat="42.99687" lon="0.07733">
        <ele>1470</ele>
        <time>2015-11-11T08:37:31Z</time>
      </trkpt>
      <trkpt lat="42.99687" lon="0.07732">
        <ele>1470.2</ele>
        <time>2015-11-11T08:37:32Z</time>
      </trkpt>
      <trkpt lat="42.997" lon="0.07717">
        <ele>1476.1</ele>
        <time>2015-11-11T08:37:57Z</time>
      </trkpt>
      <trkpt lat="42.99704" lon="0.07706">
        <ele>1478</ele>
        <time>2015-11-11T08:38:09Z</time>
      </trkpt>
      <trkpt lat="42.99706" lon="0.07695">
        <ele>1482.4</ele>
        <time>2015-11-11T08:38:24Z</time>
      </trkpt>
      <trkpt lat="42.99705" lon="0.07683">
        <ele>1484.4</ele>
        <time>2015-11-11T08:38:36Z</time>
      </trkpt>
      <trkpt lat="42.99705" lon="0.07682">
        <ele>1484.5</ele>
        <time>2015-11-11T08:38:37Z</time>
      </trkpt>
      <trkpt lat="42.99705" lon="0.07659">
        <ele>1492.1</ele>
        <time>2015-11-11T08:39:07Z</time>
      </trkpt>
      <trkpt lat="42.997" lon="0.07648">
        <ele>1493.9</ele>
        <time>2015-11-11T08:39:23Z</time>
      </trkpt>
      <trkpt lat="42.99699" lon="0.07637">
        <ele>1498.2</ele>
        <time>2015-11-11T08:39:37Z</time>
      </trkpt>
      <trkpt lat="42.99699" lon="0.07636">
        <ele>1498.4</ele>
        <time>2015-11-11T08:39:38Z</time>
      </trkpt>
      <trkpt lat="42.99692" lon="0.07616">
        <ele>1501.4</ele>
        <time>2015-11-11T08:40:03Z</time>
      </trkpt>
      <trkpt lat="42.99687" lon="0.07606">
        <ele>1505.3</ele>
        <time>2015-11-11T08:40:21Z</time>
      </trkpt>
      <trkpt lat="42.99684" lon="0.07595">
        <ele>1508.9</ele>
        <time>2015-11-11T08:40:38Z</time>
      </trkpt>
      <trkpt lat="42.99684" lon="0.07594">
        <ele>1509.3</ele>
        <time>2015-11-11T08:40:39Z</time>
      </trkpt>
      <trkpt lat="42.99678" lon="0.07573">
        <ele>1515.6</ele>
        <time>2015-11-11T08:41:09Z</time>
      </trkpt>
      <trkpt lat="42.99676" lon="0.07561">
        <ele>1518.7</ele>
        <time>2015-11-11T08:41:22Z</time>
      </trkpt>
      <trkpt lat="42.99677" lon="0.0755">
        <ele>1520.4</ele>
        <time>2015-11-11T08:41:38Z</time>
      </trkpt>
      <trkpt lat="42.99678" lon="0.07538">
        <ele>1524.7</ele>
        <time>2015-11-11T08:41:52Z</time>
      </trkpt>
      <trkpt lat="42.99678" lon="0.07537">
        <ele>1525.2</ele>
        <time>2015-11-11T08:41:53Z</time>
      </trkpt>
      <trkpt lat="42.99678" lon="0.07514">
        <ele>1530.6</ele>
        <time>2015-11-11T08:42:22Z</time>
      </trkpt>
      <trkpt lat="42.99679" lon="0.07503">
        <ele>1534.7</ele>
        <time>2015-11-11T08:42:37Z</time>
      </trkpt>
      <trkpt lat="42.99679" lon="0.07492">
        <ele>1537.5</ele>
        <time>2015-11-11T08:42:50Z</time>
      </trkpt>
      <trkpt lat="42.99679" lon="0.0748">
        <ele>1541.1</ele>
        <time>2015-11-11T08:43:05Z</time>
      </trkpt>
      <trkpt lat="42.99679" lon="0.07479">
        <ele>1541</ele>
        <time>2015-11-11T08:43:06Z</time>
      </trkpt>
      <trkpt lat="42.99676" lon="0.07457">
        <ele>1548</ele>
        <time>2015-11-11T08:43:46Z</time>
      </trkpt>
      <trkpt lat="42.99674" lon="0.07445">
        <ele>1553.9</ele>
        <time>2015-11-11T08:44:01Z</time>
      </trkpt>
      <trkpt lat="42.99673" lon="0.07433">
        <ele>1555.8</ele>
        <time>2015-11-11T08:44:16Z</time>
      </trkpt>
      <trkpt lat="42.99673" lon="0.07432">
        <ele>1555.9</ele>
        <time>2015-11-11T08:44:17Z</time>
      </trkpt>
      <trkpt lat="42.99668" lon="0.07411">
        <ele>1560.5</ele>
        <time>2015-11-11T08:44:41Z</time>
      </trkpt>
      <trkpt lat="42.99665" lon="0.074">
        <ele>1562.6</ele>
        <time>2015-11-11T08:44:50Z</time>
      </trkpt>
      <trkpt lat="42.99668" lon="0.07389">
        <ele>1563.6</ele>
        <time>2015-11-11T08:45:01Z</time>
      </trkpt>
      <trkpt lat="42.99669" lon="0.07377">
        <ele>1565.3</ele>
        <time>2015-11-11T08:45:17Z</time>
      </trkpt>
      <trkpt lat="42.99669" lon="0.07377">
        <ele>1565.7</ele>
        <time>2015-11-11T08:45:18Z</time>
      </trkpt>
      <trkpt lat="42.9967" lon="0.07354">
        <ele>1571</ele>
        <time>2015-11-11T08:45:39Z</time>
      </trkpt>
      <trkpt lat="42.99672" lon="0.07342">
        <ele>1574.3</ele>
        <time>2015-11-11T08:45:50Z</time>
      </trkpt>
      <trkpt lat="42.99669" lon="0.07331">
        <ele>1577.1</ele>
        <time>2015-11-11T08:46:04Z</time>
      </trkpt>
      <trkpt lat="42.99666" lon="0.0732">
        <ele>1578.3</ele>
        <time>2015-11-11T08:46:17Z</time>
      </trkpt>
      <trkpt lat="42.99664" lon="0.07309">
        <ele>1581.4</ele>
        <time>2015-11-11T08:46:29Z</time>
      </trkpt>
      <trkpt lat="42.99663" lon="0.07308">
        <ele>1581.9</ele>
        <time>2015-11-11T08:46:30Z</time>
      </trkpt>
      <trkpt lat="42.99654" lon="0.07289">
        <ele>1588</ele>
        <time>2015-11-11T08:46:57Z</time>
      </trkpt>
      <trkpt lat="42.99652" lon="0.07278">
        <ele>1589.3</ele>
        <time>2015-11-11T08:47:08Z</time>
      </trkpt>
      <trkpt lat="42.99648" lon="0.07267">
        <ele>1591.6</ele>
        <time>2015-11-11T08:47:17Z</time>
      </trkpt>
      <trkpt lat="42.99649" lon="0.07255">
        <ele>1593</ele>
        <time>2015-11-11T08:47:27Z</time>
      </trkpt>
      <trkpt lat="42.99645" lon="0.07245">
        <ele>1594.6</ele>
        <time>2015-11-11T08:47:38Z</time>
      </trkpt>
      <trkpt lat="42.99644" lon="0.07244">
        <ele>1594.4</ele>
        <time>2015-11-11T08:47:39Z</time>
      </trkpt>
      <trkpt lat="42.99641" lon="0.07222">
        <ele>1600.5</ele>
        <time>2015-11-11T08:48:06Z</time>
      </trkpt>
      <trkpt lat="42.99641" lon="0.0721">
        <ele>1601.5</ele>
        <time>2015-11-11T08:48:17Z</time>
      </trkpt>
      <trkpt lat="42.99643" lon="0.07199">
        <ele>1604.7</ele>
        <time>2015-11-11T08:48:28Z</time>
      </trkpt>
      <trkpt lat="42.99641" lon="0.07188">
        <ele>1605.2</ele>
        <time>2015-11-11T08:48:41Z</time>
      </trkpt>
      <trkpt lat="42.99641" lon="0.07187">
        <ele>1605.3</ele>
        <time>2015-11-11T08:48:42Z</time>
      </trkpt>
      <trkpt lat="42.99634" lon="0.07167">
        <ele>1610</ele>
        <time>2015-11-11T08:49:02Z</time>
      </trkpt>
      <trkpt lat="42.99626" lon="0.07163">
        <ele>1610.5</ele>
        <time>2015-11-11T08:49:11Z</time>
      </trkpt>
      <trkpt lat="42.99619" lon="0.07159">
        <ele>1613.5</ele>
        <time>2015-11-11T08:49:21Z</time>
      </trkpt>
      <trkpt lat="42.99611" lon="0.07154">
        <ele>1615</ele>
        <time>2015-11-11T08:49:30Z</time>
      </trkpt>
      <trkpt lat="42.99603" lon="0.07151">
        <ele>1615.5</ele>
        <time>2015-11-11T08:49:38Z</time>
      </trkpt>
      <trkpt lat="42.99595" lon="0.07145">
        <ele>1617.7</ele>
        <time>2015-11-11T08:49:49Z</time>
      </trkpt>
      <trkpt lat="42.99595" lon="0.07144">
        <ele>1617.7</ele>
        <time>2015-11-11T08:49:50Z</time>
      </trkpt>
      <trkpt lat="42.99588" lon="0.07123">
        <ele>1621.6</ele>
        <time>2015-11-11T08:50:13Z</time>
      </trkpt>
      <trkpt lat="42.99582" lon="0.07115">
        <ele>1626.1</ele>
        <time>2015-11-11T08:50:26Z</time>
      </trkpt>
      <trkpt lat="42.99577" lon="0.07106">
        <ele>1628.6</ele>
        <time>2015-11-11T08:50:37Z</time>
      </trkpt>
      <trkpt lat="42.99569" lon="0.071">
        <ele>1630.7</ele>
        <time>2015-11-11T08:50:49Z</time>
      </trkpt>
      <trkpt lat="42.99565" lon="0.07089">
        <ele>1636</ele>
        <time>2015-11-11T08:51:13Z</time>
      </trkpt>
      <trkpt lat="42.99565" lon="0.07088">
        <ele>1636.1</ele>
        <time>2015-11-11T08:51:14Z</time>
      </trkpt>
      <trkpt lat="42.99559" lon="0.07066">
        <ele>1643.2</ele>
        <time>2015-11-11T08:51:45Z</time>
      </trkpt>
      <trkpt lat="42.99556" lon="0.07055">
        <ele>1648.2</ele>
        <time>2015-11-11T08:52:07Z</time>
      </trkpt>
      <trkpt lat="42.99557" lon="0.07043">
        <ele>1651.1</ele>
        <time>2015-11-11T08:52:24Z</time>
      </trkpt>
      <trkpt lat="42.99557" lon="0.07043">
        <ele>1651.6</ele>
        <time>2015-11-11T08:52:25Z</time>
      </trkpt>
      <trkpt lat="42.99551" lon="0.07022">
        <ele>1658.5</ele>
        <time>2015-11-11T08:52:55Z</time>
      </trkpt>
      <trkpt lat="42.99549" lon="0.0701">
        <ele>1662.8</ele>
        <time>2015-11-11T08:53:13Z</time>
      </trkpt>
      <trkpt lat="42.99548" lon="0.06999">
        <ele>1668.3</ele>
        <time>2015-11-11T08:53:37Z</time>
      </trkpt>
      <trkpt lat="42.99548" lon="0.06998">
        <ele>1668.7</ele>
        <time>2015-11-11T08:53:38Z</time>
      </trkpt>
      <trkpt lat="42.99549" lon="0.06975">
        <ele>1676.3</ele>
        <time>2015-11-11T08:54:16Z</time>
      </trkpt>
      <trkpt lat="42.99552" lon="0.06964">
        <ele>1679.1</ele>
        <time>2015-11-11T08:54:32Z</time>
      </trkpt>
      <trkpt lat="42.99551" lon="0.06952">
        <ele>1684.2</ele>
        <time>2015-11-11T08:54:56Z</time>
      </trkpt>
      <trkpt lat="42.99551" lon="0.06951">
        <ele>1684.4</ele>
        <time>2015-11-11T08:54:57Z</time>
      </trkpt>
      <trkpt lat="42.99547" lon="0.06929">
        <ele>1690.8</ele>
        <time>2015-11-11T08:55:29Z</time>
      </trkpt>
      <trkpt lat="42.99546" lon="0.06918">
        <ele>1695.3</ele>
        <time>2015-11-11T08:55:44Z</time>
      </trkpt>
      <trkpt lat="42.99544" lon="0.06906">
        <ele>1695.5</ele>
        <time>2015-11-11T08:55:57Z</time>
      </trkpt>
      <trkpt lat="42.99544" lon="0.06906">
        <ele>1695.4</ele>
        <time>2015-11-11T08:55:58Z</time>
      </trkpt>
      <trkpt lat="42.99541" lon="0.06883">
        <ele>1703.3</ele>
        <time>2015-11-11T08:56:29Z</time>
      </trkpt>
      <trkpt lat="42.9954" lon="0.06871">
        <ele>1706.5</ele>
        <time>2015-11-11T08:56:45Z</time>
      </trkpt>
      <trkpt lat="42.99537" lon="0.0686">
        <ele>1710.9</ele>
        <time>2015-11-11T08:57:04Z</time>
      </trkpt>
      <trkpt lat="42.99537" lon="0.0686">
        <ele>1711.6</ele>
        <time>2015-11-11T08:57:05Z</time>
      </trkpt>
      <trkpt lat="42.99528" lon="0.06841">
        <ele>1717.8</ele>
        <time>2015-11-11T08:57:41Z</time>
      </trkpt>
      <trkpt lat="42.99522" lon="0.06833">
        <ele>1721.1</ele>
        <time>2015-11-11T08:58:00Z</time>
      </trkpt>
      <trkpt lat="42.99523" lon="0.06821">
        <ele>1726.4</ele>
        <time>2015-11-11T08:58:19Z</time>
      </trkpt>
      <trkpt lat="42.99523" lon="0.06821">
        <ele>1726.3</ele>
        <time>2015-11-11T08:58:20Z</time>
      </trkpt>
      <trkpt lat="42.99513" lon="0.06802">
        <ele>1734.4</ele>
        <time>2015-11-11T08:59:01Z</time>
      </trkpt>
      <trkpt lat="42.99516" lon="0.06791">
        <ele>1738.8</ele>
        <time>2015-11-11T08:59:21Z</time>
      </trkpt>
      <trkpt lat="42.99516" lon="0.0679">
        <ele>1738.8</ele>
        <time>2015-11-11T08:59:22Z</time>
      </trkpt>
      <trkpt lat="42.99507" lon="0.0677">
        <ele>1746</ele>
        <time>2015-11-11T08:59:54Z</time>
      </trkpt>
      <trkpt lat="42.99507" lon="0.06758">
        <ele>1749.1</ele>
        <time>2015-11-11T09:00:09Z</time>
      </trkpt>
      <trkpt lat="42.9951" lon="0.06747">
        <ele>1750.5</ele>
        <time>2015-11-11T09:00:20Z</time>
      </trkpt>
      <trkpt lat="42.99509" lon="0.06736">
        <ele>1755.6</ele>
        <time>2015-11-11T09:00:40Z</time>
      </trkpt>
      <trkpt lat="42.99509" lon="0.06735">
        <ele>1755.9</ele>
        <time>2015-11-11T09:00:41Z</time>
      </trkpt>
      <trkpt lat="42.99502" lon="0.06716">
        <ele>1763.5</ele>
        <time>2015-11-11T09:01:23Z</time>
      </trkpt>
      <trkpt lat="42.99501" lon="0.06704">
        <ele>1768</ele>
        <time>2015-11-11T09:01:40Z</time>
      </trkpt>
      <trkpt lat="42.99498" lon="0.06693">
        <ele>1769.6</ele>
        <time>2015-11-11T09:01:57Z</time>
      </trkpt>
      <trkpt lat="42.99498" lon="0.06692">
        <ele>1770.2</ele>
        <time>2015-11-11T09:01:58Z</time>
      </trkpt>
      <trkpt lat="42.99486" lon="0.06677">
        <ele>1781</ele>
        <time>2015-11-11T09:02:44Z</time>
      </trkpt>
      <trkpt lat="42.99481" lon="0.06668">
        <ele>1786.5</ele>
        <time>2015-11-11T09:03:06Z</time>
      </trkpt>
      <trkpt lat="42.99481" lon="0.06667">
        <ele>1786.6</ele>
        <time>2015-11-11T09:03:07Z</time>
      </trkpt>
      <trkpt lat="42.99487" lon="0.06648">
        <ele>1792</ele>
        <time>2015-11-11T09:03:37Z</time>
      </trkpt>
      <trkpt lat="42.9949" lon="0.06637">
        <ele>1794.4</ele>
        <time>2015-11-11T09:03:51Z</time>
      </trkpt>
      <trkpt lat="42.99487" lon="0.06625">
        <ele>1797</ele>
        <time>2015-11-11T09:04:02Z</time>
      </trkpt>
      <trkpt lat="42.99479" lon="0.06623">
        <ele>1802.1</ele>
        <time>2015-11-11T09:04:28Z</time>
      </trkpt>
      <trkpt lat="42.99478" lon="0.06623">
        <ele>1802.1</ele>
        <time>2015-11-11T09:04:29Z</time>
      </trkpt>
      <trkpt lat="42.99463" lon="0.06625">
        <ele>1808.6</ele>
        <time>2015-11-11T09:05:07Z</time>
      </trkpt>
      <trkpt lat="42.99456" lon="0.06631">
        <ele>1812.4</ele>
        <time>2015-11-11T09:05:23Z</time>
      </trkpt>
      <trkpt lat="42.99451" lon="0.0664">
        <ele>1817.1</ele>
        <time>2015-11-11T09:05:56Z</time>
      </trkpt>
      <trkpt lat="42.99451" lon="0.06641">
        <ele>1817.1</ele>
        <time>2015-11-11T09:05:57Z</time>
      </trkpt>
      <trkpt lat="42.99436" lon="0.0665">
        <ele>1824</ele>
        <time>2015-11-11T09:06:47Z</time>
      </trkpt>
      <trkpt lat="42.99429" lon="0.06655">
        <ele>1831.6</ele>
        <time>2015-11-11T09:07:18Z</time>
      </trkpt>
      <trkpt lat="42.99428" lon="0.06656">
        <ele>1831.7</ele>
        <time>2015-11-11T09:07:19Z</time>
      </trkpt>
      <trkpt lat="42.99412" lon="0.06662">
        <ele>1842.1</ele>
        <time>2015-11-11T09:08:45Z</time>
      </trkpt>
      <trkpt lat="42.99411" lon="0.06663">
        <ele>1842.3</ele>
        <time>2015-11-11T09:08:46Z</time>
      </trkpt>
      <trkpt lat="42.99394" lon="0.06666">
        <ele>1851.8</ele>
        <time>2015-11-11T09:09:28Z</time>
      </trkpt>
      <trkpt lat="42.99386" lon="0.06664">
        <ele>1855.7</ele>
        <time>2015-11-11T09:09:50Z</time>
      </trkpt>
      <trkpt lat="42.99385" lon="0.06663">
        <ele>1856.3</ele>
        <time>2015-11-11T09:09:51Z</time>
      </trkpt>
      <trkpt lat="42.99368" lon="0.06663">
        <ele>1866.2</ele>
        <time>2015-11-11T09:10:33Z</time>
      </trkpt>
      <trkpt lat="42.99359" lon="0.06664">
        <ele>1870.6</ele>
        <time>2015-11-11T09:10:59Z</time>
      </trkpt>
      <trkpt lat="42.99358" lon="0.06664">
        <ele>1870.4</ele>
        <time>2015-11-11T09:11:00Z</time>
      </trkpt>
      <trkpt lat="42.99343" lon="0.0667">
        <ele>1880.2</ele>
        <time>2015-11-11T09:11:42Z</time>
      </trkpt>
      <trkpt lat="42.99335" lon="0.06671">
        <ele>1884</ele>
        <time>2015-11-11T09:12:01Z</time>
      </trkpt>
      <trkpt lat="42.99334" lon="0.06671">
        <ele>1884.2</ele>
        <time>2015-11-11T09:12:02Z</time>
      </trkpt>
      <trkpt lat="42.99321" lon="0.06683">
        <ele>1894.1</ele>
        <time>2015-11-11T09:12:51Z</time>
      </trkpt>
      <trkpt lat="42.99312" lon="0.06684">
        <ele>1899.7</ele>
        <time>2015-11-11T09:13:17Z</time>
      </trkpt>
      <trkpt lat="42.99311" lon="0.06684">
        <ele>1899.7</ele>
        <time>2015-11-11T09:13:18Z</time>
      </trkpt>
      <trkpt lat="42.99296" lon="0.06692">
        <ele>1906.6</ele>
        <time>2015-11-11T09:13:57Z</time>
      </trkpt>
      <trkpt lat="42.99287" lon="0.06696">
        <ele>1911.5</ele>
        <time>2015-11-11T09:14:24Z</time>
      </trkpt>
      <trkpt lat="42.99287" lon="0.06696">
        <ele>1911.6</ele>
        <time>2015-11-11T09:14:25Z</time>
      </trkpt>
      <trkpt lat="42.99271" lon="0.06699">
        <ele>1921.4</ele>
        <time>2015-11-11T09:15:06Z</time>
      </trkpt>
      <trkpt lat="42.99262" lon="0.06701">
        <ele>1924.6</ele>
        <time>2015-11-11T09:15:22Z</time>
      </trkpt>
      <trkpt lat="42.99254" lon="0.067">
        <ele>1928.3</ele>
        <time>2015-11-11T09:15:35Z</time>
      </trkpt>
      <trkpt lat="42.99253" lon="0.067">
        <ele>1928.4</ele>
        <time>2015-11-11T09:15:36Z</time>
      </trkpt>
      <trkpt lat="42.99236" lon="0.06697">
        <ele>1933.8</ele>
        <time>2015-11-11T09:16:05Z</time>
      </trkpt>
      <trkpt lat="42.99227" lon="0.067">
        <ele>1937.2</ele>
        <time>2015-11-11T09:16:24Z</time>
      </trkpt>
      <trkpt lat="42.99219" lon="0.067">
        <ele>1942.4</ele>
        <time>2015-11-11T09:16:48Z</time>
      </trkpt>
      <trkpt lat="42.99218" lon="0.06699">
        <ele>1942.6</ele>
        <time>2015-11-11T09:16:49Z</time>
      </trkpt>
      <trkpt lat="42.99202" lon="0.06697">
        <ele>1948.4</ele>
        <time>2015-11-11T09:17:17Z</time>
      </trkpt>
      <trkpt lat="42.99193" lon="0.06696">
        <ele>1950.2</ele>
        <time>2015-11-11T09:17:29Z</time>
      </trkpt>
      <trkpt lat="42.99185" lon="0.06692">
        <ele>1953.1</ele>
        <time>2015-11-11T09:17:42Z</time>
      </trkpt>
      <trkpt lat="42.99177" lon="0.06688">
        <ele>1956.3</ele>
        <time>2015-11-11T09:17:57Z</time>
      </trkpt>
      <trkpt lat="42.99176" lon="0.06688">
        <ele>1956.6</ele>
        <time>2015-11-11T09:17:58Z</time>
      </trkpt>
      <trkpt lat="42.99163" lon="0.06693">
        <ele>1960.2</ele>
        <time>2015-11-11T09:18:22Z</time>
      </trkpt>
      <trkpt lat="42.99159" lon="0.06703">
        <ele>1961.6</ele>
        <time>2015-11-11T09:18:32Z</time>
      </trkpt>
      <trkpt lat="42.99155" lon="0.06714">
        <ele>1964.7</ele>
        <time>2015-11-11T09:18:42Z</time>
      </trkpt>
      <trkpt lat="42.99155" lon="0.06726">
        <ele>1965.9</ele>
        <time>2015-11-11T09:18:54Z</time>
      </trkpt>
      <trkpt lat="42.99149" lon="0.06734">
        <ele>1968.1</ele>
        <time>2015-11-11T09:25:41Z</time>
      </trkpt>
      <trkpt lat="42.99148" lon="0.06735">
        <ele>1968</ele>
        <time>2015-11-11T09:25:42Z</time>
      </trkpt>
      <trkpt lat="42.99135" lon="0.06749">
        <ele>1972.1</ele>
        <time>2015-11-11T09:26:04Z</time>
      </trkpt>
      <trkpt lat="42.99126" lon="0.06747">
        <ele>1974.4</ele>
        <time>2015-11-11T09:26:14Z</time>
      </trkpt>
      <trkpt lat="42.99119" lon="0.0674">
        <ele>1974.8</ele>
        <time>2015-11-11T09:26:24Z</time>
      </trkpt>
      <trkpt lat="42.9911" lon="0.06738">
        <ele>1977.6</ele>
        <time>2015-11-11T09:26:39Z</time>
      </trkpt>
      <trkpt lat="42.99102" lon="0.06741">
        <ele>1980.4</ele>
        <time>2015-11-11T09:26:57Z</time>
      </trkpt>
      <trkpt lat="42.99101" lon="0.06741">
        <ele>1980.4</ele>
        <time>2015-11-11T09:26:58Z</time>
      </trkpt>
      <trkpt lat="42.99088" lon="0.06729">
        <ele>1985.7</ele>
        <time>2015-11-11T09:27:20Z</time>
      </trkpt>
      <trkpt lat="42.99084" lon="0.06719">
        <ele>1986.1</ele>
        <time>2015-11-11T09:27:29Z</time>
      </trkpt>
      <trkpt lat="42.99084" lon="0.06707">
        <ele>1987.2</ele>
        <time>2015-11-11T09:27:37Z</time>
      </trkpt>
      <trkpt lat="42.99079" lon="0.06698">
        <ele>1987</ele>
        <time>2015-11-11T09:27:45Z</time>
      </trkpt>
      <trkpt lat="42.99074" lon="0.06688">
        <ele>1987.9</ele>
        <time>2015-11-11T09:27:54Z</time>
      </trkpt>
      <trkpt lat="42.99072" lon="0.06677">
        <ele>1989.1</ele>
        <time>2015-11-11T09:28:02Z</time>
      </trkpt>
      <trkpt lat="42.99072" lon="0.06676">
        <ele>1989.6</ele>
        <time>2015-11-11T09:28:03Z</time>
      </trkpt>
      <trkpt lat="42.99066" lon="0.06656">
        <ele>1992.1</ele>
        <time>2015-11-11T09:28:20Z</time>
      </trkpt>
      <trkpt lat="42.99065" lon="0.06644">
        <ele>1993.9</ele>
        <time>2015-11-11T09:28:30Z</time>
      </trkpt>
      <trkpt lat="42.99063" lon="0.06633">
        <ele>1995.9</ele>
        <time>2015-11-11T09:28:38Z</time>
      </trkpt>
      <trkpt lat="42.99061" lon="0.06622">
        <ele>1997.9</ele>
        <time>2015-11-11T09:28:48Z</time>
      </trkpt>
      <trkpt lat="42.99058" lon="0.0661">
        <ele>2000.7</ele>
        <time>2015-11-11T09:29:00Z</time>
      </trkpt>
      <trkpt lat="42.99055" lon="0.066">
        <ele>2003.7</ele>
        <time>2015-11-11T09:29:10Z</time>
      </trkpt>
      <trkpt lat="42.99054" lon="0.06599">
        <ele>2003.9</ele>
        <time>2015-11-11T09:29:11Z</time>
      </trkpt>
      <trkpt lat="42.99047" lon="0.06579">
        <ele>2009.6</ele>
        <time>2015-11-11T09:29:43Z</time>
      </trkpt>
      <trkpt lat="42.99047" lon="0.06568">
        <ele>2013.1</ele>
        <time>2015-11-11T09:29:59Z</time>
      </trkpt>
      <trkpt lat="42.99038" lon="0.06564">
        <ele>2020.2</ele>
        <time>2015-11-11T09:30:32Z</time>
      </trkpt>
      <trkpt lat="42.99038" lon="0.06564">
        <ele>2020.7</ele>
        <time>2015-11-11T09:30:33Z</time>
      </trkpt>
      <trkpt lat="42.99026" lon="0.06548">
        <ele>2031</ele>
        <time>2015-11-11T09:31:16Z</time>
      </trkpt>
      <trkpt lat="42.99024" lon="0.06536">
        <ele>2035.3</ele>
        <time>2015-11-11T09:31:39Z</time>
      </trkpt>
      <trkpt lat="42.99024" lon="0.06535">
        <ele>2035.6</ele>
        <time>2015-11-11T09:31:40Z</time>
      </trkpt>
      <trkpt lat="42.99015" lon="0.06516">
        <ele>2043.5</ele>
        <time>2015-11-11T09:32:17Z</time>
      </trkpt>
      <trkpt lat="42.99011" lon="0.06506">
        <ele>2047.6</ele>
        <time>2015-11-11T09:32:37Z</time>
      </trkpt>
      <trkpt lat="42.99006" lon="0.06495">
        <ele>2050.3</ele>
        <time>2015-11-11T09:32:51Z</time>
      </trkpt>
      <trkpt lat="42.99006" lon="0.06495">
        <ele>2050.5</ele>
        <time>2015-11-11T09:32:52Z</time>
      </trkpt>
      <trkpt lat="42.98991" lon="0.06504">
        <ele>2056</ele>
        <time>2015-11-11T09:33:23Z</time>
      </trkpt>
      <trkpt lat="42.98983" lon="0.06509">
        <ele>2056.7</ele>
        <time>2015-11-11T09:33:34Z</time>
      </trkpt>
      <trkpt lat="42.98975" lon="0.06514">
        <ele>2057.7</ele>
        <time>2015-11-11T09:33:42Z</time>
      </trkpt>
      <trkpt lat="42.98969" lon="0.06523">
        <ele>2058</ele>
        <time>2015-11-11T09:33:53Z</time>
      </trkpt>
      <trkpt lat="42.98969" lon="0.06523">
        <ele>2058.1</ele>
        <time>2015-11-11T09:33:54Z</time>
      </trkpt>
      <trkpt lat="42.98956" lon="0.06536">
        <ele>2059.1</ele>
        <time>2015-11-11T09:34:14Z</time>
      </trkpt>
      <trkpt lat="42.9895" lon="0.06543">
        <ele>2060.4</ele>
        <time>2015-11-11T09:34:23Z</time>
      </trkpt>
      <trkpt lat="42.98942" lon="0.06549">
        <ele>2060.6</ele>
        <time>2015-11-11T09:34:31Z</time>
      </trkpt>
      <trkpt lat="42.98934" lon="0.06553">
        <ele>2061</ele>
        <time>2015-11-11T09:34:39Z</time>
      </trkpt>
      <trkpt lat="42.98925" lon="0.06555">
        <ele>2061.2</ele>
        <time>2015-11-11T09:34:47Z</time>
      </trkpt>
      <trkpt lat="42.98917" lon="0.06558">
        <ele>2060.3</ele>
        <time>2015-11-11T09:34:57Z</time>
      </trkpt>
      <trkpt lat="42.98916" lon="0.06558">
        <ele>2060.5</ele>
        <time>2015-11-11T09:34:58Z</time>
      </trkpt>
      <trkpt lat="42.98905" lon="0.06575">
        <ele>2065.9</ele>
        <time>2015-11-11T09:35:29Z</time>
      </trkpt>
      <trkpt lat="42.98901" lon="0.06586">
        <ele>2068.3</ele>
        <time>2015-11-11T09:35:40Z</time>
      </trkpt>
      <trkpt lat="42.98897" lon="0.06596">
        <ele>2070.7</ele>
        <time>2015-11-11T09:35:52Z</time>
      </trkpt>
      <trkpt lat="42.98892" lon="0.06605">
        <ele>2072.4</ele>
        <time>2015-11-11T09:36:01Z</time>
      </trkpt>
      <trkpt lat="42.98891" lon="0.06606">
        <ele>2072.3</ele>
        <time>2015-11-11T09:36:02Z</time>
      </trkpt>
      <trkpt lat="42.98879" lon="0.0662">
        <ele>2075</ele>
        <time>2015-11-11T09:36:19Z</time>
      </trkpt>
      <trkpt lat="42.98871" lon="0.06626">
        <ele>2077.2</ele>
        <time>2015-11-11T09:36:30Z</time>
      </trkpt>
      <trkpt lat="42.98865" lon="0.06634">
        <ele>2080.9</ele>
        <time>2015-11-11T09:36:44Z</time>
      </trkpt>
      <trkpt lat="42.98857" lon="0.06639">
        <ele>2083.8</ele>
        <time>2015-11-11T09:37:00Z</time>
      </trkpt>
      <trkpt lat="42.98851" lon="0.06648">
        <ele>2088.1</ele>
        <time>2015-11-11T09:37:14Z</time>
      </trkpt>
      <trkpt lat="42.9885" lon="0.06648">
        <ele>2087.9</ele>
        <time>2015-11-11T09:37:15Z</time>
      </trkpt>
      <trkpt lat="42.98837" lon="0.06658">
        <ele>2093.2</ele>
        <time>2015-11-11T09:37:45Z</time>
      </trkpt>
      <trkpt lat="42.98831" lon="0.06666">
        <ele>2099.1</ele>
        <time>2015-11-11T09:38:12Z</time>
      </trkpt>
      <trkpt lat="42.98822" lon="0.06666">
        <ele>2102.8</ele>
        <time>2015-11-11T09:38:28Z</time>
      </trkpt>
      <trkpt lat="42.98822" lon="0.06666">
        <ele>2102.8</ele>
        <time>2015-11-11T09:38:29Z</time>
      </trkpt>
      <trkpt lat="42.98813" lon="0.06682">
        <ele>2111.2</ele>
        <time>2015-11-11T09:39:12Z</time>
      </trkpt>
      <trkpt lat="42.98806" lon="0.06687">
        <ele>2117.6</ele>
        <time>2015-11-11T09:39:43Z</time>
      </trkpt>
      <trkpt lat="42.98805" lon="0.06687">
        <ele>2118</ele>
        <time>2015-11-11T09:39:44Z</time>
      </trkpt>
      <trkpt lat="42.9879" lon="0.06698">
        <ele>2130.3</ele>
        <time>2015-11-11T09:40:46Z</time>
      </trkpt>
      <trkpt lat="42.9879" lon="0.06698">
        <ele>2130.5</ele>
        <time>2015-11-11T09:40:47Z</time>
      </trkpt>
      <trkpt lat="42.98773" lon="0.06697">
        <ele>2135.3</ele>
        <time>2015-11-11T09:41:16Z</time>
      </trkpt>
      <trkpt lat="42.98765" lon="0.06693">
        <ele>2133.6</ele>
        <time>2015-11-11T09:41:25Z</time>
      </trkpt>
      <trkpt lat="42.98757" lon="0.06693">
        <ele>2133.7</ele>
        <time>2015-11-11T09:41:34Z</time>
      </trkpt>
      <trkpt lat="42.9875" lon="0.067">
        <ele>2134.2</ele>
        <time>2015-11-11T09:41:45Z</time>
      </trkpt>
      <trkpt lat="42.98741" lon="0.06704">
        <ele>2135.9</ele>
        <time>2015-11-11T09:41:55Z</time>
      </trkpt>
      <trkpt lat="42.9874" lon="0.06705">
        <ele>2136.2</ele>
        <time>2015-11-11T09:41:56Z</time>
      </trkpt>
      <trkpt lat="42.98726" lon="0.06714">
        <ele>2138.9</ele>
        <time>2015-11-11T09:42:13Z</time>
      </trkpt>
      <trkpt lat="42.98718" lon="0.06718">
        <ele>2139.5</ele>
        <time>2015-11-11T09:42:20Z</time>
      </trkpt>
      <trkpt lat="42.9871" lon="0.06722">
        <ele>2139.7</ele>
        <time>2015-11-11T09:42:31Z</time>
      </trkpt>
      <trkpt lat="42.98702" lon="0.06726">
        <ele>2141.2</ele>
        <time>2015-11-11T09:42:41Z</time>
      </trkpt>
      <trkpt lat="42.98694" lon="0.0673">
        <ele>2142.6</ele>
        <time>2015-11-11T09:42:50Z</time>
      </trkpt>
      <trkpt lat="42.98686" lon="0.06734">
        <ele>2142.4</ele>
        <time>2015-11-11T09:43:00Z</time>
      </trkpt>
      <trkpt lat="42.98685" lon="0.06734">
        <ele>2142.6</ele>
        <time>2015-11-11T09:43:01Z</time>
      </trkpt>
      <trkpt lat="42.9867" lon="0.06744">
        <ele>2145.4</ele>
        <time>2015-11-11T09:43:22Z</time>
      </trkpt>
      <trkpt lat="42.98662" lon="0.06748">
        <ele>2147.7</ele>
        <time>2015-11-11T09:43:32Z</time>
      </trkpt>
      <trkpt lat="42.98654" lon="0.06748">
        <ele>2149.2</ele>
        <time>2015-11-11T09:43:52Z</time>
      </trkpt>
      <trkpt lat="42.98645" lon="0.06747">
        <ele>2149.6</ele>
        <time>2015-11-11T09:44:03Z</time>
      </trkpt>
      <trkpt lat="42.98644" lon="0.06747">
        <ele>2150</ele>
        <time>2015-11-11T09:44:04Z</time>
      </trkpt>
      <trkpt lat="42.98628" lon="0.06754">
        <ele>2155.6</ele>
        <time>2015-11-11T09:44:36Z</time>
      </trkpt>
      <trkpt lat="42.9862" lon="0.06756">
        <ele>2160.5</ele>
        <time>2015-11-11T09:45:02Z</time>
      </trkpt>
      <trkpt lat="42.98613" lon="0.06764">
        <ele>2164.6</ele>
        <time>2015-11-11T09:45:41Z</time>
      </trkpt>
      <trkpt lat="42.98613" lon="0.06764">
        <ele>2164.6</ele>
        <time>2015-11-11T09:45:42Z</time>
      </trkpt>
      <trkpt lat="42.98596" lon="0.06767">
        <ele>2174.3</ele>
        <time>2015-11-11T09:46:28Z</time>
      </trkpt>
      <trkpt lat="42.9859" lon="0.06776">
        <ele>2180.5</ele>
        <time>2015-11-11T09:46:57Z</time>
      </trkpt>
      <trkpt lat="42.9859" lon="0.06777">
        <ele>2180.5</ele>
        <time>2015-11-11T09:46:58Z</time>
      </trkpt>
      <trkpt lat="42.98576" lon="0.0679">
        <ele>2191.3</ele>
        <time>2015-11-11T09:47:53Z</time>
      </trkpt>
      <trkpt lat="42.98568" lon="0.06795">
        <ele>2196.8</ele>
        <time>2015-11-11T09:48:16Z</time>
      </trkpt>
      <trkpt lat="42.98568" lon="0.06795">
        <ele>2197.1</ele>
        <time>2015-11-11T09:48:17Z</time>
      </trkpt>
      <trkpt lat="42.98555" lon="0.0681">
        <ele>2210.3</ele>
        <time>2015-11-11T09:49:21Z</time>
      </trkpt>
      <trkpt lat="42.98555" lon="0.0681">
        <ele>2210.7</ele>
        <time>2015-11-11T09:49:22Z</time>
      </trkpt>
      <trkpt lat="42.98538" lon="0.06814">
        <ele>2214.5</ele>
        <time>2015-11-11T09:49:49Z</time>
      </trkpt>
      <trkpt lat="42.9853" lon="0.06814">
        <ele>2216.9</ele>
        <time>2015-11-11T09:50:06Z</time>
      </trkpt>
      <trkpt lat="42.98521" lon="0.06814">
        <ele>2220.2</ele>
        <time>2015-11-11T09:50:21Z</time>
      </trkpt>
      <trkpt lat="42.98512" lon="0.06813">
        <ele>2222.1</ele>
        <time>2015-11-11T09:50:33Z</time>
      </trkpt>
      <trkpt lat="42.98512" lon="0.06813">
        <ele>2222.2</ele>
        <time>2015-11-11T09:50:34Z</time>
      </trkpt>
      <trkpt lat="42.98495" lon="0.06814">
        <ele>2229.5</ele>
        <time>2015-11-11T09:51:06Z</time>
      </trkpt>
      <trkpt lat="42.98487" lon="0.06818">
        <ele>2233.6</ele>
        <time>2015-11-11T09:51:23Z</time>
      </trkpt>
      <trkpt lat="42.98478" lon="0.06818">
        <ele>2236.7</ele>
        <time>2015-11-11T09:51:42Z</time>
      </trkpt>
      <trkpt lat="42.98477" lon="0.06819">
        <ele>2236.7</ele>
        <time>2015-11-11T09:51:43Z</time>
      </trkpt>
      <trkpt lat="42.98461" lon="0.06823">
        <ele>2245.1</ele>
        <time>2015-11-11T09:52:23Z</time>
      </trkpt>
      <trkpt lat="42.98453" lon="0.06826">
        <ele>2249.8</ele>
        <time>2015-11-11T09:52:44Z</time>
      </trkpt>
      <trkpt lat="42.98452" lon="0.06826">
        <ele>2249.8</ele>
        <time>2015-11-11T09:52:45Z</time>
      </trkpt>
      <trkpt lat="42.98444" lon="0.06843">
        <ele>2259.3</ele>
        <time>2015-11-11T09:53:37Z</time>
      </trkpt>
      <trkpt lat="42.98436" lon="0.06848">
        <ele>2264.2</ele>
        <time>2015-11-11T09:54:00Z</time>
      </trkpt>
      <trkpt lat="42.98435" lon="0.06848">
        <ele>2264.9</ele>
        <time>2015-11-11T09:54:01Z</time>
      </trkpt>
      <trkpt lat="42.98418" lon="0.0685">
        <ele>2272.5</ele>
        <time>2015-11-11T09:54:33Z</time>
      </trkpt>
      <trkpt lat="42.9841" lon="0.06851">
        <ele>2275.8</ele>
        <time>2015-11-11T09:54:49Z</time>
      </trkpt>
      <trkpt lat="42.98401" lon="0.06851">
        <ele>2278.8</ele>
        <time>2015-11-11T09:55:10Z</time>
      </trkpt>
      <trkpt lat="42.98401" lon="0.06851">
        <ele>2279</ele>
        <time>2015-11-11T09:55:11Z</time>
      </trkpt>
      <trkpt lat="42.98385" lon="0.06846">
        <ele>2286.7</ele>
        <time>2015-11-11T09:55:40Z</time>
      </trkpt>
      <trkpt lat="42.98376" lon="0.0685">
        <ele>2313.7</ele>
        <time>2015-11-11T09:55:54Z</time>
      </trkpt>
      <trkpt lat="42.98368" lon="0.06852">
        <ele>2315.6</ele>
        <time>2015-11-11T09:56:07Z</time>
      </trkpt>
      <trkpt lat="42.98361" lon="0.06859">
        <ele>2317.8</ele>
        <time>2015-11-11T09:56:20Z</time>
      </trkpt>
      <trkpt lat="42.98361" lon="0.06859">
        <ele>2317.7</ele>
        <time>2015-11-11T09:56:21Z</time>
      </trkpt>
      <trkpt lat="42.98362" lon="0.06872">
        <ele>2327.6</ele>
        <time>2015-11-11T09:57:22Z</time>
      </trkpt>
      <trkpt lat="42.98362" lon="0.06873">
        <ele>2327.7</ele>
        <time>2015-11-11T09:57:23Z</time>
      </trkpt>
      <trkpt lat="42.98375" lon="0.06887">
        <ele>2331.6</ele>
        <time>2015-11-11T10:02:56Z</time>
      </trkpt>
      <trkpt lat="42.98375" lon="0.06887">
        <ele>2332.1</ele>
        <time>2015-11-11T10:02:57Z</time>
      </trkpt>
      <trkpt lat="42.98367" lon="0.06881">
        <ele>2349.2</ele>
        <time>2015-11-11T11:26:31Z</time>
      </trkpt>
      <trkpt lat="42.98352" lon="0.06871">
        <ele>2344.1</ele>
        <time>2015-11-11T11:26:51Z</time>
      </trkpt>
      <trkpt lat="42.98353" lon="0.0686">
        <ele>2338</ele>
        <time>2015-11-11T11:27:22Z</time>
      </trkpt>
      <trkpt lat="42.98359" lon="0.06851">
        <ele>2334.5</ele>
        <time>2015-11-11T11:27:47Z</time>
      </trkpt>
      <trkpt lat="42.9836" lon="0.06851">
        <ele>2334.2</ele>
        <time>2015-11-11T11:27:48Z</time>
      </trkpt>
      <trkpt lat="42.98375" lon="0.06847">
        <ele>2329</ele>
        <time>2015-11-11T11:28:11Z</time>
      </trkpt>
      <trkpt lat="42.98383" lon="0.0685">
        <ele>2328.3</ele>
        <time>2015-11-11T11:28:24Z</time>
      </trkpt>
      <trkpt lat="42.98392" lon="0.0685">
        <ele>2324</ele>
        <time>2015-11-11T11:28:40Z</time>
      </trkpt>
      <trkpt lat="42.98401" lon="0.06851">
        <ele>2320.2</ele>
        <time>2015-11-11T11:28:53Z</time>
      </trkpt>
      <trkpt lat="42.98401" lon="0.06851">
        <ele>2320.2</ele>
        <time>2015-11-11T11:28:54Z</time>
      </trkpt>
      <trkpt lat="42.98418" lon="0.06853">
        <ele>2312.4</ele>
        <time>2015-11-11T11:29:19Z</time>
      </trkpt>
      <trkpt lat="42.98426" lon="0.06851">
        <ele>2308.5</ele>
        <time>2015-11-11T11:29:33Z</time>
      </trkpt>
      <trkpt lat="42.98434" lon="0.06846">
        <ele>2305.4</ele>
        <time>2015-11-11T11:29:43Z</time>
      </trkpt>
      <trkpt lat="42.98441" lon="0.06839">
        <ele>2300.4</ele>
        <time>2015-11-11T11:29:59Z</time>
      </trkpt>
      <trkpt lat="42.98442" lon="0.06839">
        <ele>2300.1</ele>
        <time>2015-11-11T11:30:00Z</time>
      </trkpt>
      <trkpt lat="42.98456" lon="0.06831">
        <ele>2291.7</ele>
        <time>2015-11-11T11:30:26Z</time>
      </trkpt>
      <trkpt lat="42.98462" lon="0.06822">
        <ele>2284.6</ele>
        <time>2015-11-11T11:31:02Z</time>
      </trkpt>
      <trkpt lat="42.98463" lon="0.06822">
        <ele>2284.3</ele>
        <time>2015-11-11T11:31:03Z</time>
      </trkpt>
      <trkpt lat="42.9848" lon="0.06817">
        <ele>2275.6</ele>
        <time>2015-11-11T11:31:38Z</time>
      </trkpt>
      <trkpt lat="42.98488" lon="0.06815">
        <ele>2271.5</ele>
        <time>2015-11-11T11:31:57Z</time>
      </trkpt>
      <trkpt lat="42.98497" lon="0.06816">
        <ele>2267</ele>
        <time>2015-11-11T11:32:11Z</time>
      </trkpt>
      <trkpt lat="42.98498" lon="0.06817">
        <ele>2266.8</ele>
        <time>2015-11-11T11:32:12Z</time>
      </trkpt>
      <trkpt lat="42.98514" lon="0.06817">
        <ele>2262.8</ele>
        <time>2015-11-11T11:32:30Z</time>
      </trkpt>
      <trkpt lat="42.98523" lon="0.06813">
        <ele>2262</ele>
        <time>2015-11-11T11:32:42Z</time>
      </trkpt>
      <trkpt lat="42.98531" lon="0.06813">
        <ele>2258.8</ele>
        <time>2015-11-11T11:32:57Z</time>
      </trkpt>
      <trkpt lat="42.9854" lon="0.06814">
        <ele>2256</ele>
        <time>2015-11-11T11:33:11Z</time>
      </trkpt>
      <trkpt lat="42.98548" lon="0.06814">
        <ele>2251.7</ele>
        <time>2015-11-11T11:33:28Z</time>
      </trkpt>
      <trkpt lat="42.98549" lon="0.06813">
        <ele>2251.3</ele>
        <time>2015-11-11T11:33:29Z</time>
      </trkpt>
      <trkpt lat="42.98561" lon="0.06798">
        <ele>2239.5</ele>
        <time>2015-11-11T11:34:32Z</time>
      </trkpt>
      <trkpt lat="42.98562" lon="0.06798">
        <ele>2239.8</ele>
        <time>2015-11-11T11:34:33Z</time>
      </trkpt>
      <trkpt lat="42.98577" lon="0.06786">
        <ele>2228.9</ele>
        <time>2015-11-11T11:35:15Z</time>
      </trkpt>
      <trkpt lat="42.98573" lon="0.06775">
        <ele>2224.1</ele>
        <time>2015-11-11T11:36:03Z</time>
      </trkpt>
      <trkpt lat="42.98573" lon="0.06775">
        <ele>2224.2</ele>
        <time>2015-11-11T11:36:04Z</time>
      </trkpt>
      <trkpt lat="42.9859" lon="0.06773">
        <ele>2219.1</ele>
        <time>2015-11-11T11:37:06Z</time>
      </trkpt>
      <trkpt lat="42.9859" lon="0.06772">
        <ele>2218.9</ele>
        <time>2015-11-11T11:37:07Z</time>
      </trkpt>
      <trkpt lat="42.98599" lon="0.0676">
        <ele>2210.2</ele>
        <time>2015-11-11T11:37:36Z</time>
      </trkpt>
      <trkpt lat="42.98607" lon="0.06757">
        <ele>2204.8</ele>
        <time>2015-11-11T11:37:54Z</time>
      </trkpt>
      <trkpt lat="42.98616" lon="0.06757">
        <ele>2202.3</ele>
        <time>2015-11-11T11:38:07Z</time>
      </trkpt>
      <trkpt lat="42.98624" lon="0.06753">
        <ele>2198.6</ele>
        <time>2015-11-11T11:38:18Z</time>
      </trkpt>
      <trkpt lat="42.98625" lon="0.06753">
        <ele>2198.3</ele>
        <time>2015-11-11T11:38:19Z</time>
      </trkpt>
      <trkpt lat="42.98639" lon="0.06743">
        <ele>2193.2</ele>
        <time>2015-11-11T11:38:40Z</time>
      </trkpt>
      <trkpt lat="42.98645" lon="0.06734">
        <ele>2189.6</ele>
        <time>2015-11-11T11:38:53Z</time>
      </trkpt>
      <trkpt lat="42.98653" lon="0.06735">
        <ele>2187.4</ele>
        <time>2015-11-11T11:39:24Z</time>
      </trkpt>
      <trkpt lat="42.98654" lon="0.06736">
        <ele>2187.3</ele>
        <time>2015-11-11T11:39:25Z</time>
      </trkpt>
      <trkpt lat="42.98668" lon="0.06739">
        <ele>2188.5</ele>
        <time>2015-11-11T11:40:20Z</time>
      </trkpt>
      <trkpt lat="42.98676" lon="0.06734">
        <ele>2187.9</ele>
        <time>2015-11-11T11:40:29Z</time>
      </trkpt>
      <trkpt lat="42.98677" lon="0.06733">
        <ele>2188</ele>
        <time>2015-11-11T11:40:30Z</time>
      </trkpt>
      <trkpt lat="42.98691" lon="0.06726">
        <ele>2185.5</ele>
        <time>2015-11-11T11:40:44Z</time>
      </trkpt>
      <trkpt lat="42.98698" lon="0.0672">
        <ele>2185.4</ele>
        <time>2015-11-11T11:40:52Z</time>
      </trkpt>
      <trkpt lat="42.98706" lon="0.06715">
        <ele>2183</ele>
        <time>2015-11-11T11:40:59Z</time>
      </trkpt>
      <trkpt lat="42.98714" lon="0.06711">
        <ele>2182.8</ele>
        <time>2015-11-11T11:41:06Z</time>
      </trkpt>
      <trkpt lat="42.98721" lon="0.06706">
        <ele>2182.4</ele>
        <time>2015-11-11T11:41:14Z</time>
      </trkpt>
      <trkpt lat="42.98729" lon="0.067">
        <ele>2179.7</ele>
        <time>2015-11-11T11:41:25Z</time>
      </trkpt>
      <trkpt lat="42.98737" lon="0.06698">
        <ele>2179.2</ele>
        <time>2015-11-11T11:42:04Z</time>
      </trkpt>
      <trkpt lat="42.98738" lon="0.06697">
        <ele>2179.3</ele>
        <time>2015-11-11T11:42:05Z</time>
      </trkpt>
      <trkpt lat="42.98752" lon="0.0669">
        <ele>2177.6</ele>
        <time>2015-11-11T11:42:21Z</time>
      </trkpt>
      <trkpt lat="42.98761" lon="0.0669">
        <ele>2176.4</ele>
        <time>2015-11-11T11:42:33Z</time>
      </trkpt>
      <trkpt lat="42.9877" lon="0.06687">
        <ele>2171.1</ele>
        <time>2015-11-11T11:42:52Z</time>
      </trkpt>
      <trkpt lat="42.98778" lon="0.06686">
        <ele>2166.9</ele>
        <time>2015-11-11T11:43:09Z</time>
      </trkpt>
      <trkpt lat="42.98779" lon="0.06687">
        <ele>2166.8</ele>
        <time>2015-11-11T11:43:10Z</time>
      </trkpt>
      <trkpt lat="42.98795" lon="0.06687">
        <ele>2160.1</ele>
        <time>2015-11-11T11:43:41Z</time>
      </trkpt>
      <trkpt lat="42.98803" lon="0.06683">
        <ele>2156.1</ele>
        <time>2015-11-11T11:43:58Z</time>
      </trkpt>
      <trkpt lat="42.98809" lon="0.06674">
        <ele>2149.3</ele>
        <time>2015-11-11T11:44:16Z</time>
      </trkpt>
      <trkpt lat="42.98809" lon="0.06673">
        <ele>2149.1</ele>
        <time>2015-11-11T11:44:17Z</time>
      </trkpt>
      <trkpt lat="42.98825" lon="0.06665">
        <ele>2141.3</ele>
        <time>2015-11-11T11:44:53Z</time>
      </trkpt>
      <trkpt lat="42.98831" lon="0.06656">
        <ele>2137.4</ele>
        <time>2015-11-11T11:45:05Z</time>
      </trkpt>
      <trkpt lat="42.98837" lon="0.0665">
        <ele>2133.4</ele>
        <time>2015-11-11T11:45:17Z</time>
      </trkpt>
      <trkpt lat="42.98844" lon="0.06644">
        <ele>2131.2</ele>
        <time>2015-11-11T11:45:29Z</time>
      </trkpt>
      <trkpt lat="42.98845" lon="0.06643">
        <ele>2130.8</ele>
        <time>2015-11-11T11:45:30Z</time>
      </trkpt>
      <trkpt lat="42.98858" lon="0.06631">
        <ele>2123.8</ele>
        <time>2015-11-11T11:45:50Z</time>
      </trkpt>
      <trkpt lat="42.98864" lon="0.06623">
        <ele>2121.2</ele>
        <time>2015-11-11T11:45:58Z</time>
      </trkpt>
      <trkpt lat="42.98871" lon="0.06616">
        <ele>2118.5</ele>
        <time>2015-11-11T11:46:05Z</time>
      </trkpt>
      <trkpt lat="42.98878" lon="0.06609">
        <ele>2116.1</ele>
        <time>2015-11-11T11:46:12Z</time>
      </trkpt>
      <trkpt lat="42.98884" lon="0.06601">
        <ele>2115.4</ele>
        <time>2015-11-11T11:46:19Z</time>
      </trkpt>
      <trkpt lat="42.9889" lon="0.06595">
        <ele>2113.3</ele>
        <time>2015-11-11T11:46:25Z</time>
      </trkpt>
      <trkpt lat="42.98898" lon="0.06589">
        <ele>2112.4</ele>
        <time>2015-11-11T11:46:32Z</time>
      </trkpt>
      <trkpt lat="42.98899" lon="0.06589">
        <ele>2112.4</ele>
        <time>2015-11-11T11:46:33Z</time>
      </trkpt>
      <trkpt lat="42.98913" lon="0.06575">
        <ele>2111.9</ele>
        <time>2015-11-11T11:46:47Z</time>
      </trkpt>
      <trkpt lat="42.98921" lon="0.06573">
        <ele>2111.5</ele>
        <time>2015-11-11T11:46:55Z</time>
      </trkpt>
      <trkpt lat="42.98928" lon="0.06567">
        <ele>2110.2</ele>
        <time>2015-11-11T11:47:03Z</time>
      </trkpt>
      <trkpt lat="42.98935" lon="0.0656">
        <ele>2109.5</ele>
        <time>2015-11-11T11:47:10Z</time>
      </trkpt>
      <trkpt lat="42.98939" lon="0.0655">
        <ele>2107.5</ele>
        <time>2015-11-11T11:47:17Z</time>
      </trkpt>
      <trkpt lat="42.98944" lon="0.06542">
        <ele>2106.4</ele>
        <time>2015-11-11T11:47:24Z</time>
      </trkpt>
      <trkpt lat="42.9895" lon="0.06534">
        <ele>2104.7</ele>
        <time>2015-11-11T11:47:31Z</time>
      </trkpt>
      <trkpt lat="42.98957" lon="0.06525">
        <ele>2102.9</ele>
        <time>2015-11-11T11:47:40Z</time>
      </trkpt>
      <trkpt lat="42.98957" lon="0.06525">
        <ele>2102.6</ele>
        <time>2015-11-11T11:47:41Z</time>
      </trkpt>
      <trkpt lat="42.9897" lon="0.06513">
        <ele>2100</ele>
        <time>2015-11-11T11:47:53Z</time>
      </trkpt>
      <trkpt lat="42.98977" lon="0.06508">
        <ele>2099.7</ele>
        <time>2015-11-11T11:48:01Z</time>
      </trkpt>
      <trkpt lat="42.98986" lon="0.06509">
        <ele>2099.4</ele>
        <time>2015-11-11T11:48:09Z</time>
      </trkpt>
      <trkpt lat="42.98993" lon="0.06502">
        <ele>2097.2</ele>
        <time>2015-11-11T11:48:24Z</time>
      </trkpt>
      <trkpt lat="42.98999" lon="0.06508">
        <ele>2092.4</ele>
        <time>2015-11-11T11:48:44Z</time>
      </trkpt>
      <trkpt lat="42.99" lon="0.06509">
        <ele>2092.2</ele>
        <time>2015-11-11T11:48:45Z</time>
      </trkpt>
      <trkpt lat="42.99005" lon="0.06531">
        <ele>2082.8</ele>
        <time>2015-11-11T11:49:14Z</time>
      </trkpt>
      <trkpt lat="42.99007" lon="0.06543">
        <ele>2080</ele>
        <time>2015-11-11T11:49:23Z</time>
      </trkpt>
      <trkpt lat="42.99012" lon="0.06551">
        <ele>2078.2</ele>
        <time>2015-11-11T11:49:33Z</time>
      </trkpt>
      <trkpt lat="42.99018" lon="0.0656">
        <ele>2072</ele>
        <time>2015-11-11T11:49:42Z</time>
      </trkpt>
      <trkpt lat="42.99026" lon="0.06566">
        <ele>2067.5</ele>
        <time>2015-11-11T11:49:50Z</time>
      </trkpt>
      <trkpt lat="42.99027" lon="0.06566">
        <ele>2067</ele>
        <time>2015-11-11T11:49:51Z</time>
      </trkpt>
      <trkpt lat="42.99041" lon="0.06577">
        <ele>2059.5</ele>
        <time>2015-11-11T11:50:11Z</time>
      </trkpt>
      <trkpt lat="42.99047" lon="0.06584">
        <ele>2055.1</ele>
        <time>2015-11-11T11:50:21Z</time>
      </trkpt>
      <trkpt lat="42.9905" lon="0.06595">
        <ele>2051.2</ele>
        <time>2015-11-11T11:50:28Z</time>
      </trkpt>
      <trkpt lat="42.99052" lon="0.06607">
        <ele>2048.4</ele>
        <time>2015-11-11T11:50:35Z</time>
      </trkpt>
      <trkpt lat="42.99057" lon="0.06617">
        <ele>2046.7</ele>
        <time>2015-11-11T11:50:41Z</time>
      </trkpt>
      <trkpt lat="42.9906" lon="0.06628">
        <ele>2044.3</ele>
        <time>2015-11-11T11:50:47Z</time>
      </trkpt>
      <trkpt lat="42.99061" lon="0.0664">
        <ele>2040.4</ele>
        <time>2015-11-11T11:50:54Z</time>
      </trkpt>
      <trkpt lat="42.99062" lon="0.06642">
        <ele>2040</ele>
        <time>2015-11-11T11:50:55Z</time>
      </trkpt>
      <trkpt lat="42.99067" lon="0.06661">
        <ele>2036</ele>
        <time>2015-11-11T11:51:07Z</time>
      </trkpt>
      <trkpt lat="42.9907" lon="0.06672">
        <ele>2033.5</ele>
        <time>2015-11-11T11:51:13Z</time>
      </trkpt>
      <trkpt lat="42.99072" lon="0.06682">
        <ele>2033.3</ele>
        <time>2015-11-11T11:51:19Z</time>
      </trkpt>
      <trkpt lat="42.99075" lon="0.06692">
        <ele>2032.4</ele>
        <time>2015-11-11T11:51:25Z</time>
      </trkpt>
      <trkpt lat="42.99079" lon="0.06701">
        <ele>2031.8</ele>
        <time>2015-11-11T11:51:30Z</time>
      </trkpt>
      <trkpt lat="42.9908" lon="0.06713">
        <ele>2030.6</ele>
        <time>2015-11-11T11:51:36Z</time>
      </trkpt>
      <trkpt lat="42.99082" lon="0.06724">
        <ele>2030</ele>
        <time>2015-11-11T11:51:42Z</time>
      </trkpt>
      <trkpt lat="42.99085" lon="0.06736">
        <ele>2029.3</ele>
        <time>2015-11-11T11:51:50Z</time>
      </trkpt>
      <trkpt lat="42.99093" lon="0.0674">
        <ele>2026.7</ele>
        <time>2015-11-11T11:52:01Z</time>
      </trkpt>
      <trkpt lat="42.99094" lon="0.06741">
        <ele>2026.7</ele>
        <time>2015-11-11T11:52:02Z</time>
      </trkpt>
      <trkpt lat="42.9911" lon="0.06738">
        <ele>2021.5</ele>
        <time>2015-11-11T11:52:22Z</time>
      </trkpt>
      <trkpt lat="42.99118" lon="0.06745">
        <ele>2019.7</ele>
        <time>2015-11-11T11:52:30Z</time>
      </trkpt>
      <trkpt lat="42.99123" lon="0.06753">
        <ele>2016.9</ele>
        <time>2015-11-11T11:53:33Z</time>
      </trkpt>
      <trkpt lat="42.99124" lon="0.06753">
        <ele>2017.1</ele>
        <time>2015-11-11T11:53:34Z</time>
      </trkpt>
      <trkpt lat="42.99137" lon="0.06741">
        <ele>2014.6</ele>
        <time>2015-11-11T11:53:49Z</time>
      </trkpt>
      <trkpt lat="42.99142" lon="0.06731">
        <ele>2012.9</ele>
        <time>2015-11-11T11:53:56Z</time>
      </trkpt>
      <trkpt lat="42.99147" lon="0.06723">
        <ele>2011.4</ele>
        <time>2015-11-11T11:54:02Z</time>
      </trkpt>
      <trkpt lat="42.9915" lon="0.06712">
        <ele>2010</ele>
        <time>2015-11-11T11:54:09Z</time>
      </trkpt>
      <trkpt lat="42.99152" lon="0.067">
        <ele>2008.3</ele>
        <time>2015-11-11T11:54:17Z</time>
      </trkpt>
      <trkpt lat="42.99156" lon="0.0669">
        <ele>2006.4</ele>
        <time>2015-11-11T11:54:25Z</time>
      </trkpt>
      <trkpt lat="42.99164" lon="0.06686">
        <ele>2003</ele>
        <time>2015-11-11T11:54:39Z</time>
      </trkpt>
      <trkpt lat="42.99165" lon="0.06687">
        <ele>2003.1</ele>
        <time>2015-11-11T11:54:40Z</time>
      </trkpt>
      <trkpt lat="42.99181" lon="0.06691">
        <ele>1999.2</ele>
        <time>2015-11-11T11:54:59Z</time>
      </trkpt>
      <trkpt lat="42.99189" lon="0.06694">
        <ele>1997.6</ele>
        <time>2015-11-11T11:55:08Z</time>
      </trkpt>
      <trkpt lat="42.99197" lon="0.06694">
        <ele>1993.5</ele>
        <time>2015-11-11T11:55:18Z</time>
      </trkpt>
      <trkpt lat="42.99206" lon="0.06694">
        <ele>1990.1</ele>
        <time>2015-11-11T11:55:28Z</time>
      </trkpt>
      <trkpt lat="42.99214" lon="0.06699">
        <ele>1988.3</ele>
        <time>2015-11-11T11:55:37Z</time>
      </trkpt>
      <trkpt lat="42.99222" lon="0.06698">
        <ele>1983.4</ele>
        <time>2015-11-11T11:55:54Z</time>
      </trkpt>
      <trkpt lat="42.99223" lon="0.06699">
        <ele>1983.3</ele>
        <time>2015-11-11T11:55:55Z</time>
      </trkpt>
      <trkpt lat="42.99239" lon="0.06696">
        <ele>1977.1</ele>
        <time>2015-11-11T11:56:14Z</time>
      </trkpt>
      <trkpt lat="42.99248" lon="0.06699">
        <ele>1974.7</ele>
        <time>2015-11-11T11:56:22Z</time>
      </trkpt>
      <trkpt lat="42.99256" lon="0.067">
        <ele>1972.5</ele>
        <time>2015-11-11T11:56:30Z</time>
      </trkpt>
      <trkpt lat="42.99265" lon="0.06697">
        <ele>1967.5</ele>
        <time>2015-11-11T11:56:41Z</time>
      </trkpt>
      <trkpt lat="42.99273" lon="0.06695">
        <ele>1963.5</ele>
        <time>2015-11-11T11:56:53Z</time>
      </trkpt>
      <trkpt lat="42.99282" lon="0.06696">
        <ele>1960.2</ele>
        <time>2015-11-11T11:57:04Z</time>
      </trkpt>
      <trkpt lat="42.99283" lon="0.06696">
        <ele>1960</ele>
        <time>2015-11-11T11:57:05Z</time>
      </trkpt>
      <trkpt lat="42.99295" lon="0.06682">
        <ele>1950.2</ele>
        <time>2015-11-11T11:57:31Z</time>
      </trkpt>
      <trkpt lat="42.99303" lon="0.06684">
        <ele>1947.5</ele>
        <time>2015-11-11T11:57:39Z</time>
      </trkpt>
      <trkpt lat="42.99312" lon="0.06685">
        <ele>1942.6</ele>
        <time>2015-11-11T11:57:53Z</time>
      </trkpt>
      <trkpt lat="42.99319" lon="0.06681">
        <ele>1937.1</ele>
        <time>2015-11-11T11:58:10Z</time>
      </trkpt>
      <trkpt lat="42.9932" lon="0.06681">
        <ele>1936.6</ele>
        <time>2015-11-11T11:58:11Z</time>
      </trkpt>
      <trkpt lat="42.99333" lon="0.0667">
        <ele>1928.3</ele>
        <time>2015-11-11T11:58:34Z</time>
      </trkpt>
      <trkpt lat="42.99341" lon="0.06669">
        <ele>1924.5</ele>
        <time>2015-11-11T11:58:44Z</time>
      </trkpt>
      <trkpt lat="42.99349" lon="0.06663">
        <ele>1920.9</ele>
        <time>2015-11-11T11:58:55Z</time>
      </trkpt>
      <trkpt lat="42.99357" lon="0.06666">
        <ele>1914.3</ele>
        <time>2015-11-11T11:59:09Z</time>
      </trkpt>
      <trkpt lat="42.99366" lon="0.06664">
        <ele>1909.9</ele>
        <time>2015-11-11T11:59:24Z</time>
      </trkpt>
      <trkpt lat="42.99367" lon="0.06663">
        <ele>1909.4</ele>
        <time>2015-11-11T11:59:25Z</time>
      </trkpt>
      <trkpt lat="42.99383" lon="0.06665">
        <ele>1901.4</ele>
        <time>2015-11-11T11:59:50Z</time>
      </trkpt>
      <trkpt lat="42.99391" lon="0.06661">
        <ele>1898.5</ele>
        <time>2015-11-11T12:00:01Z</time>
      </trkpt>
      <trkpt lat="42.99399" lon="0.0666">
        <ele>1894.7</ele>
        <time>2015-11-11T12:00:12Z</time>
      </trkpt>
      <trkpt lat="42.99408" lon="0.06661">
        <ele>1891.1</ele>
        <time>2015-11-11T12:00:24Z</time>
      </trkpt>
      <trkpt lat="42.99417" lon="0.06661">
        <ele>1884.6</ele>
        <time>2015-11-11T12:00:41Z</time>
      </trkpt>
      <trkpt lat="42.99417" lon="0.06661">
        <ele>1884.3</ele>
        <time>2015-11-11T12:00:42Z</time>
      </trkpt>
      <trkpt lat="42.99433" lon="0.06653">
        <ele>1873.8</ele>
        <time>2015-11-11T12:01:30Z</time>
      </trkpt>
      <trkpt lat="42.99441" lon="0.06658">
        <ele>1870.7</ele>
        <time>2015-11-11T12:01:39Z</time>
      </trkpt>
      <trkpt lat="42.99444" lon="0.06648">
        <ele>1866.8</ele>
        <time>2015-11-11T12:01:47Z</time>
      </trkpt>
      <trkpt lat="42.99445" lon="0.06647">
        <ele>1865.9</ele>
        <time>2015-11-11T12:01:48Z</time>
      </trkpt>
      <trkpt lat="42.99457" lon="0.06632">
        <ele>1856.9</ele>
        <time>2015-11-11T12:02:10Z</time>
      </trkpt>
      <trkpt lat="42.99465" lon="0.06625">
        <ele>1851.7</ele>
        <time>2015-11-11T12:02:31Z</time>
      </trkpt>
      <trkpt lat="42.99472" lon="0.06629">
        <ele>1848.7</ele>
        <time>2015-11-11T12:02:41Z</time>
      </trkpt>
      <trkpt lat="42.99481" lon="0.06629">
        <ele>1846.3</ele>
        <time>2015-11-11T12:03:03Z</time>
      </trkpt>
      <trkpt lat="42.99482" lon="0.06629">
        <ele>1845.8</ele>
        <time>2015-11-11T12:03:04Z</time>
      </trkpt>
      <trkpt lat="42.99481" lon="0.06651">
        <ele>1839.7</ele>
        <time>2015-11-11T12:03:30Z</time>
      </trkpt>
      <trkpt lat="42.99477" lon="0.06662">
        <ele>1834.5</ele>
        <time>2015-11-11T12:03:47Z</time>
      </trkpt>
      <trkpt lat="42.99484" lon="0.06671">
        <ele>1829.9</ele>
        <time>2015-11-11T12:04:00Z</time>
      </trkpt>
      <trkpt lat="42.99489" lon="0.06679">
        <ele>1825.8</ele>
        <time>2015-11-11T12:04:09Z</time>
      </trkpt>
      <trkpt lat="42.99491" lon="0.0668">
        <ele>1825.5</ele>
        <time>2015-11-11T12:04:10Z</time>
      </trkpt>
      <trkpt lat="42.99499" lon="0.067">
        <ele>1816.7</ele>
        <time>2015-11-11T12:04:28Z</time>
      </trkpt>
      <trkpt lat="42.995" lon="0.06711">
        <ele>1811.5</ele>
        <time>2015-11-11T12:04:40Z</time>
      </trkpt>
      <trkpt lat="42.99502" lon="0.06723">
        <ele>1807.5</ele>
        <time>2015-11-11T12:04:53Z</time>
      </trkpt>
      <trkpt lat="42.99505" lon="0.06734">
        <ele>1803.1</ele>
        <time>2015-11-11T12:05:03Z</time>
      </trkpt>
      <trkpt lat="42.99507" lon="0.06745">
        <ele>1799.3</ele>
        <time>2015-11-11T12:05:14Z</time>
      </trkpt>
      <trkpt lat="42.99506" lon="0.06747">
        <ele>1798.8</ele>
        <time>2015-11-11T12:05:15Z</time>
      </trkpt>
      <trkpt lat="42.99508" lon="0.06768">
        <ele>1758.2</ele>
        <time>2015-11-11T12:05:32Z</time>
      </trkpt>
      <trkpt lat="42.99513" lon="0.06777">
        <ele>1754.1</ele>
        <time>2015-11-11T12:05:42Z</time>
      </trkpt>
      <trkpt lat="42.99514" lon="0.06789">
        <ele>1748.6</ele>
        <time>2015-11-11T12:05:58Z</time>
      </trkpt>
      <trkpt lat="42.99517" lon="0.068">
        <ele>1743.2</ele>
        <time>2015-11-11T12:06:12Z</time>
      </trkpt>
      <trkpt lat="42.9952" lon="0.06812">
        <ele>1740.3</ele>
        <time>2015-11-11T12:06:25Z</time>
      </trkpt>
      <trkpt lat="42.99521" lon="0.06813">
        <ele>1739.7</ele>
        <time>2015-11-11T12:06:26Z</time>
      </trkpt>
      <trkpt lat="42.99526" lon="0.06831">
        <ele>1733.2</ele>
        <time>2015-11-11T12:06:45Z</time>
      </trkpt>
      <trkpt lat="42.99525" lon="0.06843">
        <ele>1728</ele>
        <time>2015-11-11T12:06:55Z</time>
      </trkpt>
      <trkpt lat="42.99531" lon="0.06852">
        <ele>1725.7</ele>
        <time>2015-11-11T12:07:02Z</time>
      </trkpt>
      <trkpt lat="42.99534" lon="0.06863">
        <ele>1723.4</ele>
        <time>2015-11-11T12:07:10Z</time>
      </trkpt>
      <trkpt lat="42.99536" lon="0.06875">
        <ele>1718.9</ele>
        <time>2015-11-11T12:07:18Z</time>
      </trkpt>
      <trkpt lat="42.99538" lon="0.06886">
        <ele>1714.8</ele>
        <time>2015-11-11T12:07:25Z</time>
      </trkpt>
      <trkpt lat="42.99536" lon="0.06896">
        <ele>1712.2</ele>
        <time>2015-11-11T12:07:31Z</time>
      </trkpt>
      <trkpt lat="42.99537" lon="0.06898">
        <ele>1711.9</ele>
        <time>2015-11-11T12:07:32Z</time>
      </trkpt>
      <trkpt lat="42.99544" lon="0.06917">
        <ele>1706.3</ele>
        <time>2015-11-11T12:07:46Z</time>
      </trkpt>
      <trkpt lat="42.99545" lon="0.06929">
        <ele>1703.9</ele>
        <time>2015-11-11T12:07:55Z</time>
      </trkpt>
      <trkpt lat="42.99548" lon="0.06939">
        <ele>1700.6</ele>
        <time>2015-11-11T12:08:03Z</time>
      </trkpt>
      <trkpt lat="42.9955" lon="0.06949">
        <ele>1698</ele>
        <time>2015-11-11T12:08:10Z</time>
      </trkpt>
      <trkpt lat="42.9955" lon="0.06961">
        <ele>1694.1</ele>
        <time>2015-11-11T12:08:18Z</time>
      </trkpt>
      <trkpt lat="42.99547" lon="0.06972">
        <ele>1690.7</ele>
        <time>2015-11-11T12:08:27Z</time>
      </trkpt>
      <trkpt lat="42.99547" lon="0.06984">
        <ele>1686.7</ele>
        <time>2015-11-11T12:08:35Z</time>
      </trkpt>
      <trkpt lat="42.99547" lon="0.06985">
        <ele>1686</ele>
        <time>2015-11-11T12:08:36Z</time>
      </trkpt>
      <trkpt lat="42.99546" lon="0.07007">
        <ele>1677.9</ele>
        <time>2015-11-11T12:08:54Z</time>
      </trkpt>
      <trkpt lat="42.99548" lon="0.07019">
        <ele>1673.4</ele>
        <time>2015-11-11T12:09:06Z</time>
      </trkpt>
      <trkpt lat="42.99554" lon="0.07026">
        <ele>1668.7</ele>
        <time>2015-11-11T12:09:15Z</time>
      </trkpt>
      <trkpt lat="42.99556" lon="0.07037">
        <ele>1665.4</ele>
        <time>2015-11-11T12:09:23Z</time>
      </trkpt>
      <trkpt lat="42.99556" lon="0.07048">
        <ele>1662.6</ele>
        <time>2015-11-11T12:09:30Z</time>
      </trkpt>
      <trkpt lat="42.99558" lon="0.0706">
        <ele>1658.2</ele>
        <time>2015-11-11T12:09:38Z</time>
      </trkpt>
      <trkpt lat="42.99558" lon="0.07062">
        <ele>1658</ele>
        <time>2015-11-11T12:09:39Z</time>
      </trkpt>
      <trkpt lat="42.99563" lon="0.07082">
        <ele>1649.7</ele>
        <time>2015-11-11T12:09:56Z</time>
      </trkpt>
      <trkpt lat="42.9957" lon="0.07089">
        <ele>1646.8</ele>
        <time>2015-11-11T12:10:03Z</time>
      </trkpt>
      <trkpt lat="42.99569" lon="0.071">
        <ele>1643.3</ele>
        <time>2015-11-11T12:10:11Z</time>
      </trkpt>
      <trkpt lat="42.99577" lon="0.07107">
        <ele>1639.8</ele>
        <time>2015-11-11T12:10:20Z</time>
      </trkpt>
      <trkpt lat="42.99582" lon="0.07115">
        <ele>1637.2</ele>
        <time>2015-11-11T12:10:27Z</time>
      </trkpt>
      <trkpt lat="42.99588" lon="0.07123">
        <ele>1634.1</ele>
        <time>2015-11-11T12:10:34Z</time>
      </trkpt>
      <trkpt lat="42.99593" lon="0.07132">
        <ele>1632.5</ele>
        <time>2015-11-11T12:10:41Z</time>
      </trkpt>
      <trkpt lat="42.99594" lon="0.07133">
        <ele>1631.8</ele>
        <time>2015-11-11T12:10:42Z</time>
      </trkpt>
      <trkpt lat="42.99605" lon="0.07147">
        <ele>1625.9</ele>
        <time>2015-11-11T12:10:58Z</time>
      </trkpt>
      <trkpt lat="42.99613" lon="0.07152">
        <ele>1625</ele>
        <time>2015-11-11T12:11:04Z</time>
      </trkpt>
      <trkpt lat="42.99621" lon="0.07157">
        <ele>1624</ele>
        <time>2015-11-11T12:11:10Z</time>
      </trkpt>
      <trkpt lat="42.99628" lon="0.07161">
        <ele>1621.6</ele>
        <time>2015-11-11T12:11:16Z</time>
      </trkpt>
      <trkpt lat="42.99636" lon="0.07167">
        <ele>1620.2</ele>
        <time>2015-11-11T12:11:22Z</time>
      </trkpt>
      <trkpt lat="42.99641" lon="0.07176">
        <ele>1619.1</ele>
        <time>2015-11-11T12:11:28Z</time>
      </trkpt>
      <trkpt lat="42.99646" lon="0.07184">
        <ele>1616.7</ele>
        <time>2015-11-11T12:11:34Z</time>
      </trkpt>
      <trkpt lat="42.99643" lon="0.07196">
        <ele>1614.8</ele>
        <time>2015-11-11T12:11:43Z</time>
      </trkpt>
      <trkpt lat="42.99643" lon="0.07198">
        <ele>1614.7</ele>
        <time>2015-11-11T12:11:44Z</time>
      </trkpt>
      <trkpt lat="42.99643" lon="0.0722">
        <ele>1610.1</ele>
        <time>2015-11-11T12:12:01Z</time>
      </trkpt>
      <trkpt lat="42.99645" lon="0.07231">
        <ele>1608</ele>
        <time>2015-11-11T12:12:09Z</time>
      </trkpt>
      <trkpt lat="42.9965" lon="0.07241">
        <ele>1606.2</ele>
        <time>2015-11-11T12:12:16Z</time>
      </trkpt>
      <trkpt lat="42.99652" lon="0.07253">
        <ele>1604.3</ele>
        <time>2015-11-11T12:12:22Z</time>
      </trkpt>
      <trkpt lat="42.99653" lon="0.07263">
        <ele>1603</ele>
        <time>2015-11-11T12:12:28Z</time>
      </trkpt>
      <trkpt lat="42.99654" lon="0.07274">
        <ele>1600.4</ele>
        <time>2015-11-11T12:12:34Z</time>
      </trkpt>
      <trkpt lat="42.99657" lon="0.07285">
        <ele>1599.8</ele>
        <time>2015-11-11T12:12:41Z</time>
      </trkpt>
      <trkpt lat="42.99661" lon="0.07296">
        <ele>1596</ele>
        <time>2015-11-11T12:12:50Z</time>
      </trkpt>
      <trkpt lat="42.99662" lon="0.07297">
        <ele>1595.7</ele>
        <time>2015-11-11T12:12:51Z</time>
      </trkpt>
      <trkpt lat="42.99667" lon="0.07317">
        <ele>1589.1</ele>
        <time>2015-11-11T12:13:07Z</time>
      </trkpt>
      <trkpt lat="42.99672" lon="0.07326">
        <ele>1586.3</ele>
        <time>2015-11-11T12:13:15Z</time>
      </trkpt>
      <trkpt lat="42.99672" lon="0.07338">
        <ele>1582.9</ele>
        <time>2015-11-11T12:13:24Z</time>
      </trkpt>
      <trkpt lat="42.99671" lon="0.07349">
        <ele>1579.6</ele>
        <time>2015-11-11T12:13:33Z</time>
      </trkpt>
      <trkpt lat="42.99669" lon="0.07359">
        <ele>1577.8</ele>
        <time>2015-11-11T12:13:39Z</time>
      </trkpt>
      <trkpt lat="42.99668" lon="0.07371">
        <ele>1574.5</ele>
        <time>2015-11-11T12:13:49Z</time>
      </trkpt>
      <trkpt lat="42.99668" lon="0.07383">
        <ele>1573</ele>
        <time>2015-11-11T12:13:58Z</time>
      </trkpt>
      <trkpt lat="42.99668" lon="0.07385">
        <ele>1573.1</ele>
        <time>2015-11-11T12:13:59Z</time>
      </trkpt>
      <trkpt lat="42.99669" lon="0.07405">
        <ele>1570.6</ele>
        <time>2015-11-11T12:14:09Z</time>
      </trkpt>
      <trkpt lat="42.99672" lon="0.07416">
        <ele>1569.1</ele>
        <time>2015-11-11T12:14:15Z</time>
      </trkpt>
      <trkpt lat="42.99674" lon="0.07427">
        <ele>1566.9</ele>
        <time>2015-11-11T12:14:23Z</time>
      </trkpt>
      <trkpt lat="42.99673" lon="0.07439">
        <ele>1563.6</ele>
        <time>2015-11-11T12:14:32Z</time>
      </trkpt>
      <trkpt lat="42.99678" lon="0.07449">
        <ele>1560</ele>
        <time>2015-11-11T12:14:41Z</time>
      </trkpt>
      <trkpt lat="42.9968" lon="0.0746">
        <ele>1556.3</ele>
        <time>2015-11-11T12:14:53Z</time>
      </trkpt>
      <trkpt lat="42.9968" lon="0.07471">
        <ele>1550.7</ele>
        <time>2015-11-11T12:15:06Z</time>
      </trkpt>
      <trkpt lat="42.9968" lon="0.07473">
        <ele>1550.1</ele>
        <time>2015-11-11T12:15:07Z</time>
      </trkpt>
      <trkpt lat="42.9968" lon="0.07494">
        <ele>1544.6</ele>
        <time>2015-11-11T12:15:24Z</time>
      </trkpt>
      <trkpt lat="42.99684" lon="0.07505">
        <ele>1540.3</ele>
        <time>2015-11-11T12:15:39Z</time>
      </trkpt>
      <trkpt lat="42.99681" lon="0.07516">
        <ele>1537.4</ele>
        <time>2015-11-11T12:15:52Z</time>
      </trkpt>
      <trkpt lat="42.9968" lon="0.07527">
        <ele>1533.5</ele>
        <time>2015-11-11T12:16:07Z</time>
      </trkpt>
      <trkpt lat="42.99679" lon="0.07539">
        <ele>1528.7</ele>
        <time>2015-11-11T12:16:19Z</time>
      </trkpt>
      <trkpt lat="42.9968" lon="0.0754">
        <ele>1528.6</ele>
        <time>2015-11-11T12:16:20Z</time>
      </trkpt>
      <trkpt lat="42.99682" lon="0.07561">
        <ele>1523.2</ele>
        <time>2015-11-11T12:16:39Z</time>
      </trkpt>
      <trkpt lat="42.99684" lon="0.07572">
        <ele>1521.9</ele>
        <time>2015-11-11T12:16:46Z</time>
      </trkpt>
      <trkpt lat="42.99683" lon="0.07584">
        <ele>1518.1</ele>
        <time>2015-11-11T12:16:55Z</time>
      </trkpt>
      <trkpt lat="42.99681" lon="0.07595">
        <ele>1515.7</ele>
        <time>2015-11-11T12:17:03Z</time>
      </trkpt>
      <trkpt lat="42.99687" lon="0.07604">
        <ele>1512.3</ele>
        <time>2015-11-11T12:17:12Z</time>
      </trkpt>
      <trkpt lat="42.99691" lon="0.07613">
        <ele>1511.1</ele>
        <time>2015-11-11T12:17:20Z</time>
      </trkpt>
      <trkpt lat="42.99692" lon="0.07614">
        <ele>1510.3</ele>
        <time>2015-11-11T12:17:21Z</time>
      </trkpt>
      <trkpt lat="42.99695" lon="0.07633">
        <ele>1505.3</ele>
        <time>2015-11-11T12:17:37Z</time>
      </trkpt>
      <trkpt lat="42.99698" lon="0.07643">
        <ele>1503.8</ele>
        <time>2015-11-11T12:17:44Z</time>
      </trkpt>
      <trkpt lat="42.997" lon="0.07654">
        <ele>1502.1</ele>
        <time>2015-11-11T12:17:52Z</time>
      </trkpt>
      <trkpt lat="42.99701" lon="0.07665">
        <ele>1500.2</ele>
        <time>2015-11-11T12:17:59Z</time>
      </trkpt>
      <trkpt lat="42.99699" lon="0.07673">
        <ele>1499</ele>
        <time>2015-11-11T12:18:05Z</time>
      </trkpt>
      <trkpt lat="42.99695" lon="0.07702">
        <ele>1496.7</ele>
        <time>2015-11-11T12:18:25Z</time>
      </trkpt>
      <trkpt lat="42.99698" lon="0.07713">
        <ele>1487.8</ele>
        <time>2015-11-11T12:18:37Z</time>
      </trkpt>
      <trkpt lat="42.99695" lon="0.07724">
        <ele>1486.4</ele>
        <time>2015-11-11T12:18:46Z</time>
      </trkpt>
      <trkpt lat="42.99688" lon="0.0773">
        <ele>1483.5</ele>
        <time>2015-11-11T12:18:54Z</time>
      </trkpt>
      <trkpt lat="42.99684" lon="0.07739">
        <ele>1480.5</ele>
        <time>2015-11-11T12:19:00Z</time>
      </trkpt>
      <trkpt lat="42.99681" lon="0.0775">
        <ele>1477.7</ele>
        <time>2015-11-11T12:19:06Z</time>
      </trkpt>
      <trkpt lat="42.99681" lon="0.07755">
        <ele>1477.4</ele>
        <time>2015-11-11T12:19:10Z</time>
      </trkpt>
      <trkpt lat="42.99678" lon="0.07772">
        <ele>1475.6</ele>
        <time>2015-11-11T12:19:24Z</time>
      </trkpt>
      <trkpt lat="42.99676" lon="0.07783">
        <ele>1470.4</ele>
        <time>2015-11-11T12:19:34Z</time>
      </trkpt>
      <trkpt lat="42.99675" lon="0.07784">
        <ele>1469.6</ele>
        <time>2015-11-11T12:19:35Z</time>
      </trkpt>
      <trkpt lat="42.99667" lon="0.07826">
        <ele>1467.7</ele>
        <time>2015-11-11T12:20:00Z</time>
      </trkpt>
      <trkpt lat="42.99665" lon="0.07838">
        <ele>1464.5</ele>
        <time>2015-11-11T12:20:06Z</time>
      </trkpt>
      <trkpt lat="42.99661" lon="0.07848">
        <ele>1463.9</ele>
        <time>2015-11-11T12:20:11Z</time>
      </trkpt>
      <trkpt lat="42.99664" lon="0.0786">
        <ele>1462.2</ele>
        <time>2015-11-11T12:20:20Z</time>
      </trkpt>
      <trkpt lat="42.99668" lon="0.0787">
        <ele>1460.4</ele>
        <time>2015-11-11T12:20:27Z</time>
      </trkpt>
      <trkpt lat="42.9967" lon="0.07875">
        <ele>1459.9</ele>
        <time>2015-11-11T12:20:30Z</time>
      </trkpt>
      <trkpt lat="42.99681" lon="0.07964">
        <ele>1454.6</ele>
        <time>2015-11-11T12:21:42Z</time>
      </trkpt>
      <trkpt lat="42.9968" lon="0.07965">
        <ele>1450.6</ele>
        <time>2015-11-11T12:21:43Z</time>
      </trkpt>
      <trkpt lat="42.99673" lon="0.07976">
        <ele>1446.4</ele>
        <time>2015-11-11T12:21:53Z</time>
      </trkpt>
      <trkpt lat="42.99665" lon="0.07985">
        <ele>1441.9</ele>
        <time>2015-11-11T12:22:05Z</time>
      </trkpt>
      <trkpt lat="42.99657" lon="0.07983">
        <ele>1428.2</ele>
        <time>2015-11-11T12:22:12Z</time>
      </trkpt>
      <trkpt lat="42.9965" lon="0.07976">
        <ele>1423.2</ele>
        <time>2015-11-11T12:22:24Z</time>
      </trkpt>
      <trkpt lat="42.99642" lon="0.07971">
        <ele>1420.8</ele>
        <time>2015-11-11T12:22:38Z</time>
      </trkpt>
      <trkpt lat="42.99635" lon="0.07977">
        <ele>1419.7</ele>
        <time>2015-11-11T12:22:54Z</time>
      </trkpt>
      <trkpt lat="42.99634" lon="0.07978">
        <ele>1419.2</ele>
        <time>2015-11-11T12:22:55Z</time>
      </trkpt>
      <trkpt lat="42.99625" lon="0.07994">
        <ele>1415.4</ele>
        <time>2015-11-11T12:23:11Z</time>
      </trkpt>
      <trkpt lat="42.9962" lon="0.08003">
        <ele>1412.9</ele>
        <time>2015-11-11T12:23:20Z</time>
      </trkpt>
      <trkpt lat="42.99616" lon="0.08014">
        <ele>1409.9</ele>
        <time>2015-11-11T12:23:29Z</time>
      </trkpt>
      <trkpt lat="42.99611" lon="0.08024">
        <ele>1407.7</ele>
        <time>2015-11-11T12:23:35Z</time>
      </trkpt>
      <trkpt lat="42.99607" lon="0.08033">
        <ele>1406.8</ele>
        <time>2015-11-11T12:23:40Z</time>
      </trkpt>
      <trkpt lat="42.99605" lon="0.08045">
        <ele>1405.4</ele>
        <time>2015-11-11T12:23:45Z</time>
      </trkpt>
      <trkpt lat="42.99601" lon="0.08055">
        <ele>1403.2</ele>
        <time>2015-11-11T12:23:50Z</time>
      </trkpt>
      <trkpt lat="42.99597" lon="0.08066">
        <ele>1402.5</ele>
        <time>2015-11-11T12:23:55Z</time>
      </trkpt>
      <trkpt lat="42.99597" lon="0.08068">
        <ele>1402.1</ele>
        <time>2015-11-11T12:23:56Z</time>
      </trkpt>
      <trkpt lat="42.99588" lon="0.08086">
        <ele>1399.2</ele>
        <time>2015-11-11T12:24:20Z</time>
      </trkpt>
      <trkpt lat="42.99583" lon="0.08096">
        <ele>1398.5</ele>
        <time>2015-11-11T12:24:28Z</time>
      </trkpt>
      <trkpt lat="42.99579" lon="0.08106">
        <ele>1397.3</ele>
        <time>2015-11-11T12:24:35Z</time>
      </trkpt>
      <trkpt lat="42.99575" lon="0.08113">
        <ele>1396.3</ele>
        <time>2015-11-11T12:24:41Z</time>
      </trkpt>
      <trkpt lat="42.99569" lon="0.08121">
        <ele>1395.4</ele>
        <time>2015-11-11T12:24:47Z</time>
      </trkpt>
      <trkpt lat="42.99563" lon="0.08129">
        <ele>1393.3</ele>
        <time>2015-11-11T12:24:54Z</time>
      </trkpt>
      <trkpt lat="42.99557" lon="0.08137">
        <ele>1392.4</ele>
        <time>2015-11-11T12:25:02Z</time>
      </trkpt>
      <trkpt lat="42.99556" lon="0.08138">
        <ele>1391.7</ele>
        <time>2015-11-11T12:25:03Z</time>
      </trkpt>
      <trkpt lat="42.99545" lon="0.08152">
        <ele>1385.3</ele>
        <time>2015-11-11T12:25:25Z</time>
      </trkpt>
      <trkpt lat="42.99541" lon="0.08162">
        <ele>1383.3</ele>
        <time>2015-11-11T12:25:32Z</time>
      </trkpt>
      <trkpt lat="42.99538" lon="0.08172">
        <ele>1381.8</ele>
        <time>2015-11-11T12:25:39Z</time>
      </trkpt>
      <trkpt lat="42.99535" lon="0.08183">
        <ele>1379</ele>
        <time>2015-11-11T12:25:46Z</time>
      </trkpt>
      <trkpt lat="42.99531" lon="0.08194">
        <ele>1375.5</ele>
        <time>2015-11-11T12:25:57Z</time>
      </trkpt>
      <trkpt lat="42.99528" lon="0.08204">
        <ele>1374</ele>
        <time>2015-11-11T12:26:05Z</time>
      </trkpt>
      <trkpt lat="42.99529" lon="0.08206">
        <ele>1373.9</ele>
        <time>2015-11-11T12:26:06Z</time>
      </trkpt>
      <trkpt lat="42.99521" lon="0.08223">
        <ele>1370.4</ele>
        <time>2015-11-11T12:26:19Z</time>
      </trkpt>
      <trkpt lat="42.99514" lon="0.08215">
        <ele>1368.4</ele>
        <time>2015-11-11T12:26:53Z</time>
      </trkpt>
      <trkpt lat="42.99516" lon="0.08227">
        <ele>1368.3</ele>
        <time>2015-11-11T12:27:20Z</time>
      </trkpt>
      <trkpt lat="42.99515" lon="0.08228">
        <ele>1367.9</ele>
        <time>2015-11-11T12:27:21Z</time>
      </trkpt>
      <trkpt lat="42.9951" lon="0.08249">
        <ele>1365.4</ele>
        <time>2015-11-11T12:27:40Z</time>
      </trkpt>
      <trkpt lat="42.99509" lon="0.08261">
        <ele>1363.6</ele>
        <time>2015-11-11T12:27:51Z</time>
      </trkpt>
      <trkpt lat="42.99505" lon="0.08271">
        <ele>1362</ele>
        <time>2015-11-11T12:28:00Z</time>
      </trkpt>
      <trkpt lat="42.99501" lon="0.08282">
        <ele>1359.8</ele>
        <time>2015-11-11T12:28:11Z</time>
      </trkpt>
      <trkpt lat="42.99495" lon="0.08291">
        <ele>1360.7</ele>
        <time>2015-11-11T12:28:20Z</time>
      </trkpt>
      <trkpt lat="42.9949" lon="0.08298">
        <ele>1360.4</ele>
        <time>2015-11-11T12:28:24Z</time>
      </trkpt>
      <trkpt lat="42.99487" lon="0.08299">
        <ele>1360.4</ele>
        <time>2015-11-11T12:28:25Z</time>
      </trkpt>
      <trkpt lat="42.99477" lon="0.08307">
        <ele>1359.2</ele>
        <time>2015-11-11T12:28:31Z</time>
      </trkpt>
      <trkpt lat="42.99469" lon="0.08313">
        <ele>1358.6</ele>
        <time>2015-11-11T12:28:35Z</time>
      </trkpt>
      <trkpt lat="42.99463" lon="0.0832">
        <ele>1357.9</ele>
        <time>2015-11-11T12:28:39Z</time>
      </trkpt>
      <trkpt lat="42.99458" lon="0.08326">
        <ele>1357.2</ele>
        <time>2015-11-11T12:28:43Z</time>
      </trkpt>
      <trkpt lat="42.99451" lon="0.08333">
        <ele>1355.8</ele>
        <time>2015-11-11T12:28:48Z</time>
      </trkpt>
      <trkpt lat="42.99446" lon="0.08341">
        <ele>1355.1</ele>
        <time>2015-11-11T12:28:52Z</time>
      </trkpt>
      <trkpt lat="42.99439" lon="0.08348">
        <ele>1354.2</ele>
        <time>2015-11-11T12:28:57Z</time>
      </trkpt>
      <trkpt lat="42.99433" lon="0.08355">
        <ele>1352.8</ele>
        <time>2015-11-11T12:29:01Z</time>
      </trkpt>
      <trkpt lat="42.99428" lon="0.08362">
        <ele>1351.3</ele>
        <time>2015-11-11T12:29:05Z</time>
      </trkpt>
      <trkpt lat="42.99423" lon="0.08371">
        <ele>1349.7</ele>
        <time>2015-11-11T12:29:10Z</time>
      </trkpt>
      <trkpt lat="42.99416" lon="0.08379">
        <ele>1349.1</ele>
        <time>2015-11-11T12:29:14Z</time>
      </trkpt>
      <trkpt lat="42.9941" lon="0.08386">
        <ele>1347.9</ele>
        <time>2015-11-11T12:29:19Z</time>
      </trkpt>
      <trkpt lat="42.99406" lon="0.08395">
        <ele>1347.3</ele>
        <time>2015-11-11T12:29:24Z</time>
      </trkpt>
      <trkpt lat="42.99402" lon="0.08405">
        <ele>1346.1</ele>
        <time>2015-11-11T12:29:30Z</time>
      </trkpt>
      <trkpt lat="42.994" lon="0.08406">
        <ele>1345.9</ele>
        <time>2015-11-11T12:29:31Z</time>
      </trkpt>
      <trkpt lat="42.9939" lon="0.08423">
        <ele>1340.2</ele>
        <time>2015-11-11T12:29:51Z</time>
      </trkpt>
      <trkpt lat="42.99387" lon="0.08428">
        <ele>1338.8</ele>
        <time>2015-11-11T12:29:57Z</time>
      </trkpt>
      <trkpt lat="42.99352" lon="0.08502">
        <ele>1335.5</ele>
        <time>2015-11-11T12:30:37Z</time>
      </trkpt>
      <trkpt lat="42.99351" lon="0.08512">
        <ele>1328.3</ele>
        <time>2015-11-11T12:30:41Z</time>
      </trkpt>
      <trkpt lat="42.99351" lon="0.08524">
        <ele>1324.3</ele>
        <time>2015-11-11T12:30:46Z</time>
      </trkpt>
      <trkpt lat="42.99351" lon="0.08535">
        <ele>1322.9</ele>
        <time>2015-11-11T12:30:52Z</time>
      </trkpt>
      <trkpt lat="42.9935" lon="0.08543">
        <ele>1320.7</ele>
        <time>2015-11-11T12:30:57Z</time>
      </trkpt>
      <trkpt lat="42.99332" lon="0.08586">
        <ele>1318.7</ele>
        <time>2015-11-11T12:31:20Z</time>
      </trkpt>
      <trkpt lat="42.99327" lon="0.08594">
        <ele>1315.2</ele>
        <time>2015-11-11T12:31:25Z</time>
      </trkpt>
      <trkpt lat="42.99323" lon="0.08604">
        <ele>1313.3</ele>
        <time>2015-11-11T12:31:31Z</time>
      </trkpt>
      <trkpt lat="42.99318" lon="0.08615">
        <ele>1312.5</ele>
        <time>2015-11-11T12:31:37Z</time>
      </trkpt>
      <trkpt lat="42.99317" lon="0.08616">
        <ele>1312.4</ele>
        <time>2015-11-11T12:31:38Z</time>
      </trkpt>
      <trkpt lat="42.99311" lon="0.08635">
        <ele>1311</ele>
        <time>2015-11-11T12:31:49Z</time>
      </trkpt>
      <trkpt lat="42.99309" lon="0.08646">
        <ele>1309.6</ele>
        <time>2015-11-11T12:31:55Z</time>
      </trkpt>
      <trkpt lat="42.99307" lon="0.08657">
        <ele>1308.3</ele>
        <time>2015-11-11T12:32:01Z</time>
      </trkpt>
      <trkpt lat="42.99303" lon="0.08668">
        <ele>1306</ele>
        <time>2015-11-11T12:32:07Z</time>
      </trkpt>
      <trkpt lat="42.99299" lon="0.08678">
        <ele>1303.9</ele>
        <time>2015-11-11T12:32:13Z</time>
      </trkpt>
      <trkpt lat="42.993" lon="0.0869">
        <ele>1301.9</ele>
        <time>2015-11-11T12:32:22Z</time>
      </trkpt>
      <trkpt lat="42.99295" lon="0.08701">
        <ele>1297.1</ele>
        <time>2015-11-11T12:32:36Z</time>
      </trkpt>
      <trkpt lat="42.99287" lon="0.08703">
        <ele>1296.3</ele>
        <time>2015-11-11T12:32:45Z</time>
      </trkpt>
      <trkpt lat="42.99287" lon="0.08705">
        <ele>1295.9</ele>
        <time>2015-11-11T12:32:46Z</time>
      </trkpt>
      <trkpt lat="42.99279" lon="0.08722">
        <ele>1294.9</ele>
        <time>2015-11-11T12:32:57Z</time>
      </trkpt>
      <trkpt lat="42.99273" lon="0.08731">
        <ele>1294.2</ele>
        <time>2015-11-11T12:33:03Z</time>
      </trkpt>
      <trkpt lat="42.99268" lon="0.0874">
        <ele>1293.1</ele>
        <time>2015-11-11T12:33:09Z</time>
      </trkpt>
      <trkpt lat="42.99262" lon="0.08747">
        <ele>1292.6</ele>
        <time>2015-11-11T12:33:14Z</time>
      </trkpt>
      <trkpt lat="42.99256" lon="0.08756">
        <ele>1292.9</ele>
        <time>2015-11-11T12:33:22Z</time>
      </trkpt>
      <trkpt lat="42.99252" lon="0.08767">
        <ele>1292.2</ele>
        <time>2015-11-11T12:33:30Z</time>
      </trkpt>
      <trkpt lat="42.99247" lon="0.08776">
        <ele>1291.5</ele>
        <time>2015-11-11T12:33:38Z</time>
      </trkpt>
      <trkpt lat="42.99243" lon="0.08785">
        <ele>1291</ele>
        <time>2015-11-11T12:33:44Z</time>
      </trkpt>
      <trkpt lat="42.99238" lon="0.08795">
        <ele>1291.6</ele>
        <time>2015-11-11T12:33:51Z</time>
      </trkpt>
      <trkpt lat="42.99238" lon="0.08796">
        <ele>1291.7</ele>
        <time>2015-11-11T12:33:52Z</time>
      </trkpt>
      <trkpt lat="42.99229" lon="0.08813">
        <ele>1291.4</ele>
        <time>2015-11-11T12:34:04Z</time>
      </trkpt>
      <trkpt lat="42.99223" lon="0.0882">
        <ele>1290.8</ele>
        <time>2015-11-11T12:34:09Z</time>
      </trkpt>
      <trkpt lat="42.99216" lon="0.08826">
        <ele>1289.7</ele>
        <time>2015-11-11T12:34:16Z</time>
      </trkpt>
      <trkpt lat="42.99209" lon="0.08831">
        <ele>1288.5</ele>
        <time>2015-11-11T12:34:21Z</time>
      </trkpt>
      <trkpt lat="42.99203" lon="0.08838">
        <ele>1287</ele>
        <time>2015-11-11T12:34:26Z</time>
      </trkpt>
      <trkpt lat="42.99198" lon="0.08848">
        <ele>1285.6</ele>
        <time>2015-11-11T12:34:31Z</time>
      </trkpt>
      <trkpt lat="42.99193" lon="0.08857">
        <ele>1284.1</ele>
        <time>2015-11-11T12:34:36Z</time>
      </trkpt>
      <trkpt lat="42.9919" lon="0.08867">
        <ele>1282.2</ele>
        <time>2015-11-11T12:34:41Z</time>
      </trkpt>
      <trkpt lat="42.99185" lon="0.08876">
        <ele>1280.1</ele>
        <time>2015-11-11T12:34:47Z</time>
      </trkpt>
      <trkpt lat="42.99181" lon="0.08884">
        <ele>1279.1</ele>
        <time>2015-11-11T12:34:52Z</time>
      </trkpt>
      <trkpt lat="42.9918" lon="0.08886">
        <ele>1278.6</ele>
        <time>2015-11-11T12:34:53Z</time>
      </trkpt>
      <trkpt lat="42.99173" lon="0.08904">
        <ele>1275.6</ele>
        <time>2015-11-11T12:35:03Z</time>
      </trkpt>
      <trkpt lat="42.99173" lon="0.08915">
        <ele>1274</ele>
        <time>2015-11-11T12:35:08Z</time>
      </trkpt>
      <trkpt lat="42.99171" lon="0.08925">
        <ele>1272.8</ele>
        <time>2015-11-11T12:35:14Z</time>
      </trkpt>
      <trkpt lat="42.99167" lon="0.08936">
        <ele>1272.7</ele>
        <time>2015-11-11T12:35:18Z</time>
      </trkpt>
      <trkpt lat="42.99164" lon="0.08947">
        <ele>1270.8</ele>
        <time>2015-11-11T12:35:22Z</time>
      </trkpt>
      <trkpt lat="42.99162" lon="0.08958">
        <ele>1269.1</ele>
        <time>2015-11-11T12:35:27Z</time>
      </trkpt>
      <trkpt lat="42.9916" lon="0.08969">
        <ele>1268</ele>
        <time>2015-11-11T12:35:32Z</time>
      </trkpt>
      <trkpt lat="42.9916" lon="0.08979">
        <ele>1267.1</ele>
        <time>2015-11-11T12:35:37Z</time>
      </trkpt>
      <trkpt lat="42.99163" lon="0.0899">
        <ele>1264.4</ele>
        <time>2015-11-11T12:35:43Z</time>
      </trkpt>
      <trkpt lat="42.99167" lon="0.09001">
        <ele>1263.1</ele>
        <time>2015-11-11T12:35:52Z</time>
      </trkpt>
      <trkpt lat="42.99172" lon="0.09011">
        <ele>1260.2</ele>
        <time>2015-11-11T12:36:00Z</time>
      </trkpt>
      <trkpt lat="42.99173" lon="0.09012">
        <ele>1259.7</ele>
        <time>2015-11-11T12:36:01Z</time>
      </trkpt>
      <trkpt lat="42.99176" lon="0.09032">
        <ele>1255.6</ele>
        <time>2015-11-11T12:36:14Z</time>
      </trkpt>
      <trkpt lat="42.99173" lon="0.09041">
        <ele>1253.2</ele>
        <time>2015-11-11T12:36:19Z</time>
      </trkpt>
      <trkpt lat="42.99171" lon="0.09053">
        <ele>1252.4</ele>
        <time>2015-11-11T12:36:25Z</time>
      </trkpt>
      <trkpt lat="42.99171" lon="0.09064">
        <ele>1250.8</ele>
        <time>2015-11-11T12:36:32Z</time>
      </trkpt>
      <trkpt lat="42.99173" lon="0.09075">
        <ele>1249.5</ele>
        <time>2015-11-11T12:36:39Z</time>
      </trkpt>
      <trkpt lat="42.99175" lon="0.09085">
        <ele>1246.6</ele>
        <time>2015-11-11T12:36:45Z</time>
      </trkpt>
      <trkpt lat="42.9918" lon="0.09095">
        <ele>1243.6</ele>
        <time>2015-11-11T12:36:51Z</time>
      </trkpt>
      <trkpt lat="42.9918" lon="0.09106">
        <ele>1241</ele>
        <time>2015-11-11T12:36:58Z</time>
      </trkpt>
      <trkpt lat="42.9918" lon="0.09117">
        <ele>1238.6</ele>
        <time>2015-11-11T12:37:04Z</time>
      </trkpt>
      <trkpt lat="42.9918" lon="0.09119">
        <ele>1238.2</ele>
        <time>2015-11-11T12:37:05Z</time>
      </trkpt>
      <trkpt lat="42.99183" lon="0.0914">
        <ele>1233.4</ele>
        <time>2015-11-11T12:37:17Z</time>
      </trkpt>
      <trkpt lat="42.99184" lon="0.09152">
        <ele>1231.2</ele>
        <time>2015-11-11T12:37:25Z</time>
      </trkpt>
      <trkpt lat="42.99186" lon="0.09163">
        <ele>1229.7</ele>
        <time>2015-11-11T12:37:32Z</time>
      </trkpt>
      <trkpt lat="42.99187" lon="0.09174">
        <ele>1227.8</ele>
        <time>2015-11-11T12:37:38Z</time>
      </trkpt>
      <trkpt lat="42.99191" lon="0.09183">
        <ele>1225.3</ele>
        <time>2015-11-11T12:37:44Z</time>
      </trkpt>
      <trkpt lat="42.99189" lon="0.09194">
        <ele>1223.5</ele>
        <time>2015-11-11T12:37:50Z</time>
      </trkpt>
      <trkpt lat="42.99186" lon="0.09205">
        <ele>1221.9</ele>
        <time>2015-11-11T12:37:56Z</time>
      </trkpt>
      <trkpt lat="42.99182" lon="0.09214">
        <ele>1220.9</ele>
        <time>2015-11-11T12:38:01Z</time>
      </trkpt>
      <trkpt lat="42.99178" lon="0.09225">
        <ele>1218.2</ele>
        <time>2015-11-11T12:38:08Z</time>
      </trkpt>
      <trkpt lat="42.99178" lon="0.09226">
        <ele>1218</ele>
        <time>2015-11-11T12:38:09Z</time>
      </trkpt>
      <trkpt lat="42.99177" lon="0.09248">
        <ele>1215.4</ele>
        <time>2015-11-11T12:38:22Z</time>
      </trkpt>
      <trkpt lat="42.99177" lon="0.0926">
        <ele>1213.2</ele>
        <time>2015-11-11T12:38:28Z</time>
      </trkpt>
      <trkpt lat="42.99177" lon="0.09271">
        <ele>1210</ele>
        <time>2015-11-11T12:38:35Z</time>
      </trkpt>
      <trkpt lat="42.99175" lon="0.09283">
        <ele>1208.2</ele>
        <time>2015-11-11T12:38:42Z</time>
      </trkpt>
      <trkpt lat="42.99172" lon="0.09294">
        <ele>1205.3</ele>
        <time>2015-11-11T12:38:49Z</time>
      </trkpt>
      <trkpt lat="42.99174" lon="0.09305">
        <ele>1202.8</ele>
        <time>2015-11-11T12:38:55Z</time>
      </trkpt>
      <trkpt lat="42.99174" lon="0.09316">
        <ele>1201.8</ele>
        <time>2015-11-11T12:39:02Z</time>
      </trkpt>
      <trkpt lat="42.99172" lon="0.09327">
        <ele>1200.1</ele>
        <time>2015-11-11T12:39:07Z</time>
      </trkpt>
      <trkpt lat="42.99172" lon="0.09338">
        <ele>1198.5</ele>
        <time>2015-11-11T12:39:13Z</time>
      </trkpt>
      <trkpt lat="42.99171" lon="0.09341">
        <ele>1198.2</ele>
        <time>2015-11-11T12:39:14Z</time>
      </trkpt>
      <trkpt lat="42.99164" lon="0.09358">
        <ele>1194.8</ele>
        <time>2015-11-11T12:39:24Z</time>
      </trkpt>
      <trkpt lat="42.99166" lon="0.09369">
        <ele>1192.3</ele>
        <time>2015-11-11T12:39:31Z</time>
      </trkpt>
      <trkpt lat="42.99169" lon="0.09379">
        <ele>1189.6</ele>
        <time>2015-11-11T12:39:38Z</time>
      </trkpt>
      <trkpt lat="42.99174" lon="0.09387">
        <ele>1187.9</ele>
        <time>2015-11-11T12:39:44Z</time>
      </trkpt>
      <trkpt lat="42.99175" lon="0.09397">
        <ele>1185.8</ele>
        <time>2015-11-11T12:39:49Z</time>
      </trkpt>
      <trkpt lat="42.99179" lon="0.09407">
        <ele>1184.8</ele>
        <time>2015-11-11T12:39:56Z</time>
      </trkpt>
      <trkpt lat="42.99178" lon="0.09418">
        <ele>1181.8</ele>
        <time>2015-11-11T12:40:03Z</time>
      </trkpt>
      <trkpt lat="42.99179" lon="0.09428">
        <ele>1180</ele>
        <time>2015-11-11T12:40:09Z</time>
      </trkpt>
      <trkpt lat="42.99187" lon="0.09523">
        <ele>1176.4</ele>
        <time>2015-11-11T12:41:14Z</time>
      </trkpt>
      <trkpt lat="42.9918" lon="0.09531">
        <ele>1174.3</ele>
        <time>2015-11-11T12:41:57Z</time>
      </trkpt>
      <trkpt lat="42.99176" lon="0.0953">
        <ele>1166.2</ele>
        <time>2015-11-11T12:42:04Z</time>
      </trkpt>
      <trkpt lat="42.99176" lon="0.0953">
        <ele>1166.2</ele>
        <time>2015-11-11T12:42:04Z</time>
      </trkpt>
    </trkseg>
  </trk>
</gpx>